<?xml version="1.0" encoding="UTF-8" standalone="no" ?>
<gpx xmlns="http://www.topografix.com/GPX/1/1" creator="CompeGPS" version="1.1" xmlns:xsi="http://www.w3.org/2001/XMLSchema-instance" xsi:schemaLocation="http://www.topografix.com/GPX/1/1 http://www.topografix.com/GPX/1/1/gpx.xsd">
  <metadata>
    <link href="http://www.compegps.com">
      <text>CompeGPS TEAM, SL</text>
    </link>
    <time>2022-04-03T15:27:47Z</time>
    <bounds maxlat="36.896541" maxlon="-3.736871" minlat="36.866884" minlon="-3.796541"/>
  </metadata>
  <trk>
    <name>Cascada_de_las_Golondrinas</name>
    <trkseg>
      <trkpt lat="36.877357" lon="-3.737103">
        <ele>1278.2</ele>
        <time>2022-04-03T07:12:38Z</time>
      </trkpt>
      <trkpt lat="36.877460" lon="-3.737626">
        <ele>1276.3</ele>
        <time>2022-04-03T07:13:36Z</time>
      </trkpt>
      <trkpt lat="36.877539" lon="-3.737931">
        <ele>1276.3</ele>
        <time>2022-04-03T07:15:21Z</time>
      </trkpt>
      <trkpt lat="36.877542" lon="-3.738228">
        <ele>1276.3</ele>
        <time>2022-04-03T07:15:36Z</time>
      </trkpt>
      <trkpt lat="36.877599" lon="-3.738466">
        <ele>1275.8</ele>
        <time>2022-04-03T07:15:50Z</time>
      </trkpt>
      <trkpt lat="36.877701" lon="-3.738644">
        <ele>1274.8</ele>
        <time>2022-04-03T07:16:05Z</time>
      </trkpt>
      <trkpt lat="36.877743" lon="-3.738951">
        <ele>1274.8</ele>
        <time>2022-04-03T07:16:17Z</time>
      </trkpt>
      <trkpt lat="36.877805" lon="-3.739125">
        <ele>1274.8</ele>
        <time>2022-04-03T07:16:31Z</time>
      </trkpt>
      <trkpt lat="36.877884" lon="-3.739348">
        <ele>1274.4</ele>
        <time>2022-04-03T07:16:46Z</time>
      </trkpt>
      <trkpt lat="36.877814" lon="-3.739573">
        <ele>1270.5</ele>
        <time>2022-04-03T07:17:02Z</time>
      </trkpt>
      <trkpt lat="36.877717" lon="-3.739816">
        <ele>1267.6</ele>
        <time>2022-04-03T07:17:18Z</time>
      </trkpt>
      <trkpt lat="36.877632" lon="-3.740044">
        <ele>1264.3</ele>
        <time>2022-04-03T07:17:31Z</time>
      </trkpt>
      <trkpt lat="36.877595" lon="-3.740258">
        <ele>1265.2</ele>
        <time>2022-04-03T07:17:44Z</time>
      </trkpt>
      <trkpt lat="36.877573" lon="-3.740483">
        <ele>1261.4</ele>
        <time>2022-04-03T07:17:57Z</time>
      </trkpt>
      <trkpt lat="36.877544" lon="-3.740697">
        <ele>1258.5</ele>
        <time>2022-04-03T07:18:09Z</time>
      </trkpt>
      <trkpt lat="36.877524" lon="-3.740919">
        <ele>1258.0</ele>
        <time>2022-04-03T07:18:22Z</time>
      </trkpt>
      <trkpt lat="36.877585" lon="-3.741131">
        <ele>1257.5</ele>
        <time>2022-04-03T07:18:35Z</time>
      </trkpt>
      <trkpt lat="36.877639" lon="-3.741340">
        <ele>1256.1</ele>
        <time>2022-04-03T07:18:48Z</time>
      </trkpt>
      <trkpt lat="36.877649" lon="-3.741580">
        <ele>1257.1</ele>
        <time>2022-04-03T07:19:01Z</time>
      </trkpt>
      <trkpt lat="36.877655" lon="-3.741811">
        <ele>1256.1</ele>
        <time>2022-04-03T07:19:14Z</time>
      </trkpt>
      <trkpt lat="36.877665" lon="-3.742035">
        <ele>1254.2</ele>
        <time>2022-04-03T07:19:27Z</time>
      </trkpt>
      <trkpt lat="36.877751" lon="-3.742245">
        <ele>1254.2</ele>
        <time>2022-04-03T07:19:40Z</time>
      </trkpt>
      <trkpt lat="36.877885" lon="-3.742402">
        <ele>1253.2</ele>
        <time>2022-04-03T07:19:53Z</time>
      </trkpt>
      <trkpt lat="36.877988" lon="-3.742579">
        <ele>1252.7</ele>
        <time>2022-04-03T07:20:06Z</time>
      </trkpt>
      <trkpt lat="36.878122" lon="-3.742736">
        <ele>1250.8</ele>
        <time>2022-04-03T07:20:19Z</time>
      </trkpt>
      <trkpt lat="36.878293" lon="-3.742841">
        <ele>1250.3</ele>
        <time>2022-04-03T07:20:33Z</time>
      </trkpt>
      <trkpt lat="36.878424" lon="-3.743020">
        <ele>1250.3</ele>
        <time>2022-04-03T07:20:47Z</time>
      </trkpt>
      <trkpt lat="36.878540" lon="-3.743205">
        <ele>1250.8</ele>
        <time>2022-04-03T07:21:00Z</time>
      </trkpt>
      <trkpt lat="36.878623" lon="-3.743416">
        <ele>1249.9</ele>
        <time>2022-04-03T07:21:14Z</time>
      </trkpt>
      <trkpt lat="36.878634" lon="-3.743653">
        <ele>1246.5</ele>
        <time>2022-04-03T07:21:27Z</time>
      </trkpt>
      <trkpt lat="36.878603" lon="-3.743894">
        <ele>1244.1</ele>
        <time>2022-04-03T07:21:40Z</time>
      </trkpt>
      <trkpt lat="36.878595" lon="-3.744154">
        <ele>1243.1</ele>
        <time>2022-04-03T07:21:54Z</time>
      </trkpt>
      <trkpt lat="36.878605" lon="-3.744411">
        <ele>1242.6</ele>
        <time>2022-04-03T07:22:08Z</time>
      </trkpt>
      <trkpt lat="36.878632" lon="-3.744675">
        <ele>1242.6</ele>
        <time>2022-04-03T07:22:22Z</time>
      </trkpt>
      <trkpt lat="36.878641" lon="-3.744910">
        <ele>1242.6</ele>
        <time>2022-04-03T07:22:36Z</time>
      </trkpt>
      <trkpt lat="36.878685" lon="-3.745155">
        <ele>1244.6</ele>
        <time>2022-04-03T07:22:51Z</time>
      </trkpt>
      <trkpt lat="36.878729" lon="-3.745396">
        <ele>1247.0</ele>
        <time>2022-04-03T07:23:07Z</time>
      </trkpt>
      <trkpt lat="36.878760" lon="-3.745661">
        <ele>1249.4</ele>
        <time>2022-04-03T07:23:24Z</time>
      </trkpt>
      <trkpt lat="36.878783" lon="-3.745914">
        <ele>1250.8</ele>
        <time>2022-04-03T07:23:40Z</time>
      </trkpt>
      <trkpt lat="36.878808" lon="-3.746156">
        <ele>1255.1</ele>
        <time>2022-04-03T07:23:55Z</time>
      </trkpt>
      <trkpt lat="36.878741" lon="-3.746422">
        <ele>1255.1</ele>
        <time>2022-04-03T07:24:12Z</time>
      </trkpt>
      <trkpt lat="36.878701" lon="-3.746662">
        <ele>1256.6</ele>
        <time>2022-04-03T07:24:27Z</time>
      </trkpt>
      <trkpt lat="36.878700" lon="-3.746929">
        <ele>1259.9</ele>
        <time>2022-04-03T07:24:43Z</time>
      </trkpt>
      <trkpt lat="36.878699" lon="-3.747178">
        <ele>1260.9</ele>
        <time>2022-04-03T07:24:58Z</time>
      </trkpt>
      <trkpt lat="36.878690" lon="-3.747415">
        <ele>1262.8</ele>
        <time>2022-04-03T07:25:17Z</time>
      </trkpt>
      <trkpt lat="36.878729" lon="-3.747649">
        <ele>1264.8</ele>
        <time>2022-04-03T07:25:40Z</time>
      </trkpt>
      <trkpt lat="36.878844" lon="-3.747871">
        <ele>1268.6</ele>
        <time>2022-04-03T07:25:56Z</time>
      </trkpt>
      <trkpt lat="36.879020" lon="-3.747975">
        <ele>1268.6</ele>
        <time>2022-04-03T07:26:12Z</time>
      </trkpt>
      <trkpt lat="36.879218" lon="-3.748027">
        <ele>1270.0</ele>
        <time>2022-04-03T07:26:27Z</time>
      </trkpt>
      <trkpt lat="36.879421" lon="-3.748054">
        <ele>1272.0</ele>
        <time>2022-04-03T07:26:42Z</time>
      </trkpt>
      <trkpt lat="36.879590" lon="-3.748144">
        <ele>1273.9</ele>
        <time>2022-04-03T07:26:56Z</time>
      </trkpt>
      <trkpt lat="36.879711" lon="-3.748347">
        <ele>1275.3</ele>
        <time>2022-04-03T07:27:11Z</time>
      </trkpt>
      <trkpt lat="36.879843" lon="-3.748583">
        <ele>1277.7</ele>
        <time>2022-04-03T07:27:28Z</time>
      </trkpt>
      <trkpt lat="36.879980" lon="-3.748774">
        <ele>1278.2</ele>
        <time>2022-04-03T07:27:42Z</time>
      </trkpt>
      <trkpt lat="36.880101" lon="-3.748968">
        <ele>1277.7</ele>
        <time>2022-04-03T07:27:56Z</time>
      </trkpt>
      <trkpt lat="36.880119" lon="-3.749037">
        <ele>1277.2</ele>
        <time>2022-04-03T07:28:30Z</time>
      </trkpt>
      <trkpt lat="36.880240" lon="-3.749194">
        <ele>1279.7</ele>
        <time>2022-04-03T07:28:58Z</time>
      </trkpt>
      <trkpt lat="36.880368" lon="-3.749414">
        <ele>1280.1</ele>
        <time>2022-04-03T07:29:14Z</time>
      </trkpt>
      <trkpt lat="36.880497" lon="-3.749627">
        <ele>1283.0</ele>
        <time>2022-04-03T07:29:30Z</time>
      </trkpt>
      <trkpt lat="36.880613" lon="-3.749837">
        <ele>1284.0</ele>
        <time>2022-04-03T07:29:44Z</time>
      </trkpt>
      <trkpt lat="36.880731" lon="-3.750039">
        <ele>1284.9</ele>
        <time>2022-04-03T07:29:58Z</time>
      </trkpt>
      <trkpt lat="36.880807" lon="-3.750285">
        <ele>1284.5</ele>
        <time>2022-04-03T07:30:14Z</time>
      </trkpt>
      <trkpt lat="36.880882" lon="-3.750597">
        <ele>1286.4</ele>
        <time>2022-04-03T07:30:34Z</time>
      </trkpt>
      <trkpt lat="36.880955" lon="-3.750885">
        <ele>1287.8</ele>
        <time>2022-04-03T07:30:50Z</time>
      </trkpt>
      <trkpt lat="36.881030" lon="-3.751134">
        <ele>1289.3</ele>
        <time>2022-04-03T07:31:12Z</time>
      </trkpt>
      <trkpt lat="36.881067" lon="-3.751437">
        <ele>1291.7</ele>
        <time>2022-04-03T07:31:36Z</time>
      </trkpt>
      <trkpt lat="36.881132" lon="-3.751727">
        <ele>1292.1</ele>
        <time>2022-04-03T07:31:52Z</time>
      </trkpt>
      <trkpt lat="36.881240" lon="-3.751925">
        <ele>1294.1</ele>
        <time>2022-04-03T07:32:06Z</time>
      </trkpt>
      <trkpt lat="36.881354" lon="-3.752121">
        <ele>1294.1</ele>
        <time>2022-04-03T07:32:20Z</time>
      </trkpt>
      <trkpt lat="36.881466" lon="-3.752305">
        <ele>1294.6</ele>
        <time>2022-04-03T07:32:33Z</time>
      </trkpt>
      <trkpt lat="36.881556" lon="-3.752447">
        <ele>1294.1</ele>
        <time>2022-04-03T07:32:56Z</time>
      </trkpt>
      <trkpt lat="36.881629" lon="-3.752657">
        <ele>1294.1</ele>
        <time>2022-04-03T07:33:09Z</time>
      </trkpt>
      <trkpt lat="36.881701" lon="-3.752858">
        <ele>1294.1</ele>
        <time>2022-04-03T07:33:22Z</time>
      </trkpt>
      <trkpt lat="36.881776" lon="-3.753085">
        <ele>1295.0</ele>
        <time>2022-04-03T07:33:36Z</time>
      </trkpt>
      <trkpt lat="36.881863" lon="-3.753297">
        <ele>1295.5</ele>
        <time>2022-04-03T07:33:49Z</time>
      </trkpt>
      <trkpt lat="36.881912" lon="-3.753529">
        <ele>1297.0</ele>
        <time>2022-04-03T07:34:02Z</time>
      </trkpt>
      <trkpt lat="36.881960" lon="-3.753754">
        <ele>1298.9</ele>
        <time>2022-04-03T07:34:15Z</time>
      </trkpt>
      <trkpt lat="36.882010" lon="-3.753979">
        <ele>1299.8</ele>
        <time>2022-04-03T07:34:29Z</time>
      </trkpt>
      <trkpt lat="36.882077" lon="-3.754212">
        <ele>1300.3</ele>
        <time>2022-04-03T07:34:43Z</time>
      </trkpt>
      <trkpt lat="36.882139" lon="-3.754440">
        <ele>1300.3</ele>
        <time>2022-04-03T07:34:57Z</time>
      </trkpt>
      <trkpt lat="36.882184" lon="-3.754673">
        <ele>1301.3</ele>
        <time>2022-04-03T07:35:11Z</time>
      </trkpt>
      <trkpt lat="36.882268" lon="-3.754916">
        <ele>1303.2</ele>
        <time>2022-04-03T07:35:26Z</time>
      </trkpt>
      <trkpt lat="36.882295" lon="-3.755164">
        <ele>1305.1</ele>
        <time>2022-04-03T07:35:40Z</time>
      </trkpt>
      <trkpt lat="36.882201" lon="-3.755361">
        <ele>1306.6</ele>
        <time>2022-04-03T07:35:54Z</time>
      </trkpt>
      <trkpt lat="36.882007" lon="-3.755457">
        <ele>1308.0</ele>
        <time>2022-04-03T07:36:11Z</time>
      </trkpt>
      <trkpt lat="36.881868" lon="-3.755653">
        <ele>1309.0</ele>
        <time>2022-04-03T07:36:27Z</time>
      </trkpt>
      <trkpt lat="36.881822" lon="-3.755924">
        <ele>1308.0</ele>
        <time>2022-04-03T07:36:41Z</time>
      </trkpt>
      <trkpt lat="36.881806" lon="-3.756157">
        <ele>1308.5</ele>
        <time>2022-04-03T07:36:54Z</time>
      </trkpt>
      <trkpt lat="36.881809" lon="-3.756393">
        <ele>1308.5</ele>
        <time>2022-04-03T07:37:07Z</time>
      </trkpt>
      <trkpt lat="36.881825" lon="-3.756639">
        <ele>1308.0</ele>
        <time>2022-04-03T07:37:20Z</time>
      </trkpt>
      <trkpt lat="36.881840" lon="-3.756873">
        <ele>1308.5</ele>
        <time>2022-04-03T07:37:33Z</time>
      </trkpt>
      <trkpt lat="36.881809" lon="-3.757106">
        <ele>1308.5</ele>
        <time>2022-04-03T07:37:46Z</time>
      </trkpt>
      <trkpt lat="36.881727" lon="-3.757301">
        <ele>1308.0</ele>
        <time>2022-04-03T07:38:00Z</time>
      </trkpt>
      <trkpt lat="36.881654" lon="-3.757462">
        <ele>1307.5</ele>
        <time>2022-04-03T07:38:29Z</time>
      </trkpt>
      <trkpt lat="36.881498" lon="-3.757550">
        <ele>1307.0</ele>
        <time>2022-04-03T07:38:50Z</time>
      </trkpt>
      <trkpt lat="36.881543" lon="-3.757660">
        <ele>1306.6</ele>
        <time>2022-04-03T07:39:21Z</time>
      </trkpt>
      <trkpt lat="36.881618" lon="-3.757867">
        <ele>1306.6</ele>
        <time>2022-04-03T07:39:35Z</time>
      </trkpt>
      <trkpt lat="36.881624" lon="-3.758094">
        <ele>1306.6</ele>
        <time>2022-04-03T07:39:49Z</time>
      </trkpt>
      <trkpt lat="36.881664" lon="-3.758340">
        <ele>1306.6</ele>
        <time>2022-04-03T07:40:02Z</time>
      </trkpt>
      <trkpt lat="36.881709" lon="-3.758576">
        <ele>1306.6</ele>
        <time>2022-04-03T07:40:15Z</time>
      </trkpt>
      <trkpt lat="36.881771" lon="-3.758790">
        <ele>1306.6</ele>
        <time>2022-04-03T07:40:28Z</time>
      </trkpt>
      <trkpt lat="36.881820" lon="-3.759022">
        <ele>1307.0</ele>
        <time>2022-04-03T07:40:42Z</time>
      </trkpt>
      <trkpt lat="36.881860" lon="-3.759262">
        <ele>1306.6</ele>
        <time>2022-04-03T07:40:55Z</time>
      </trkpt>
      <trkpt lat="36.881930" lon="-3.759510">
        <ele>1306.6</ele>
        <time>2022-04-03T07:41:09Z</time>
      </trkpt>
      <trkpt lat="36.881985" lon="-3.759745">
        <ele>1307.5</ele>
        <time>2022-04-03T07:41:24Z</time>
      </trkpt>
      <trkpt lat="36.882043" lon="-3.759959">
        <ele>1307.0</ele>
        <time>2022-04-03T07:41:44Z</time>
      </trkpt>
      <trkpt lat="36.882120" lon="-3.760182">
        <ele>1307.5</ele>
        <time>2022-04-03T07:42:01Z</time>
      </trkpt>
      <trkpt lat="36.882020" lon="-3.760355">
        <ele>1308.5</ele>
        <time>2022-04-03T07:42:25Z</time>
      </trkpt>
      <trkpt lat="36.881882" lon="-3.760498">
        <ele>1310.4</ele>
        <time>2022-04-03T07:42:40Z</time>
      </trkpt>
      <trkpt lat="36.881745" lon="-3.760652">
        <ele>1311.4</ele>
        <time>2022-04-03T07:42:54Z</time>
      </trkpt>
      <trkpt lat="36.881672" lon="-3.760835">
        <ele>1313.8</ele>
        <time>2022-04-03T07:43:16Z</time>
      </trkpt>
      <trkpt lat="36.881512" lon="-3.760744">
        <ele>1314.3</ele>
        <time>2022-04-03T07:43:31Z</time>
      </trkpt>
      <trkpt lat="36.881359" lon="-3.760627">
        <ele>1315.2</ele>
        <time>2022-04-03T07:43:45Z</time>
      </trkpt>
      <trkpt lat="36.881182" lon="-3.760551">
        <ele>1316.2</ele>
        <time>2022-04-03T07:43:59Z</time>
      </trkpt>
      <trkpt lat="36.880993" lon="-3.760537">
        <ele>1318.1</ele>
        <time>2022-04-03T07:44:14Z</time>
      </trkpt>
      <trkpt lat="36.880795" lon="-3.760617">
        <ele>1318.1</ele>
        <time>2022-04-03T07:44:29Z</time>
      </trkpt>
      <trkpt lat="36.880608" lon="-3.760699">
        <ele>1318.1</ele>
        <time>2022-04-03T07:44:44Z</time>
      </trkpt>
      <trkpt lat="36.880500" lon="-3.760889">
        <ele>1318.6</ele>
        <time>2022-04-03T07:44:59Z</time>
      </trkpt>
      <trkpt lat="36.880403" lon="-3.761136">
        <ele>1321.0</ele>
        <time>2022-04-03T07:45:15Z</time>
      </trkpt>
      <trkpt lat="36.880275" lon="-3.761324">
        <ele>1321.9</ele>
        <time>2022-04-03T07:45:30Z</time>
      </trkpt>
      <trkpt lat="36.880125" lon="-3.761532">
        <ele>1322.9</ele>
        <time>2022-04-03T07:46:04Z</time>
      </trkpt>
      <trkpt lat="36.880103" lon="-3.761669">
        <ele>1322.9</ele>
        <time>2022-04-03T07:46:25Z</time>
      </trkpt>
      <trkpt lat="36.879929" lon="-3.761714">
        <ele>1326.3</ele>
        <time>2022-04-03T07:46:41Z</time>
      </trkpt>
      <trkpt lat="36.879783" lon="-3.761860">
        <ele>1327.2</ele>
        <time>2022-04-03T07:47:15Z</time>
      </trkpt>
      <trkpt lat="36.879622" lon="-3.761997">
        <ele>1327.7</ele>
        <time>2022-04-03T07:47:31Z</time>
      </trkpt>
      <trkpt lat="36.879447" lon="-3.762122">
        <ele>1329.6</ele>
        <time>2022-04-03T07:47:46Z</time>
      </trkpt>
      <trkpt lat="36.879309" lon="-3.762310">
        <ele>1331.1</ele>
        <time>2022-04-03T07:48:02Z</time>
      </trkpt>
      <trkpt lat="36.879223" lon="-3.762532">
        <ele>1332.0</ele>
        <time>2022-04-03T07:48:16Z</time>
      </trkpt>
      <trkpt lat="36.879149" lon="-3.762760">
        <ele>1333.0</ele>
        <time>2022-04-03T07:48:31Z</time>
      </trkpt>
      <trkpt lat="36.879223" lon="-3.762969">
        <ele>1330.6</ele>
        <time>2022-04-03T07:48:46Z</time>
      </trkpt>
      <trkpt lat="36.879358" lon="-3.763131">
        <ele>1329.2</ele>
        <time>2022-04-03T07:49:05Z</time>
      </trkpt>
      <trkpt lat="36.879506" lon="-3.763271">
        <ele>1326.3</ele>
        <time>2022-04-03T07:50:18Z</time>
      </trkpt>
      <trkpt lat="36.879608" lon="-3.763397">
        <ele>1325.3</ele>
        <time>2022-04-03T07:50:47Z</time>
      </trkpt>
      <trkpt lat="36.879759" lon="-3.763577">
        <ele>1324.4</ele>
        <time>2022-04-03T07:51:03Z</time>
      </trkpt>
      <trkpt lat="36.879921" lon="-3.763751">
        <ele>1322.9</ele>
        <time>2022-04-03T07:51:18Z</time>
      </trkpt>
      <trkpt lat="36.880051" lon="-3.763974">
        <ele>1320.0</ele>
        <time>2022-04-03T07:51:33Z</time>
      </trkpt>
      <trkpt lat="36.880152" lon="-3.764184">
        <ele>1318.6</ele>
        <time>2022-04-03T07:51:47Z</time>
      </trkpt>
      <trkpt lat="36.880282" lon="-3.764362">
        <ele>1318.1</ele>
        <time>2022-04-03T07:52:00Z</time>
      </trkpt>
      <trkpt lat="36.880448" lon="-3.764498">
        <ele>1315.2</ele>
        <time>2022-04-03T07:52:14Z</time>
      </trkpt>
      <trkpt lat="36.880666" lon="-3.764636">
        <ele>1312.3</ele>
        <time>2022-04-03T07:52:30Z</time>
      </trkpt>
      <trkpt lat="36.880902" lon="-3.764741">
        <ele>1310.4</ele>
        <time>2022-04-03T07:52:50Z</time>
      </trkpt>
      <trkpt lat="36.881124" lon="-3.764860">
        <ele>1309.5</ele>
        <time>2022-04-03T07:53:09Z</time>
      </trkpt>
      <trkpt lat="36.881272" lon="-3.765091">
        <ele>1308.5</ele>
        <time>2022-04-03T07:53:25Z</time>
      </trkpt>
      <trkpt lat="36.881411" lon="-3.765246">
        <ele>1308.0</ele>
        <time>2022-04-03T07:54:21Z</time>
      </trkpt>
      <trkpt lat="36.881501" lon="-3.765470">
        <ele>1309.0</ele>
        <time>2022-04-03T07:54:39Z</time>
      </trkpt>
      <trkpt lat="36.881521" lon="-3.765771">
        <ele>1313.8</ele>
        <time>2022-04-03T07:54:59Z</time>
      </trkpt>
      <trkpt lat="36.881574" lon="-3.766064">
        <ele>1316.2</ele>
        <time>2022-04-03T07:55:18Z</time>
      </trkpt>
      <trkpt lat="36.881567" lon="-3.766302">
        <ele>1318.6</ele>
        <time>2022-04-03T07:55:37Z</time>
      </trkpt>
      <trkpt lat="36.881522" lon="-3.766529">
        <ele>1316.2</ele>
        <time>2022-04-03T07:56:04Z</time>
      </trkpt>
      <trkpt lat="36.881329" lon="-3.766610">
        <ele>1316.2</ele>
        <time>2022-04-03T07:56:23Z</time>
      </trkpt>
      <trkpt lat="36.881421" lon="-3.766640">
        <ele>1315.2</ele>
        <time>2022-04-03T07:56:43Z</time>
      </trkpt>
      <trkpt lat="36.881584" lon="-3.766748">
        <ele>1312.8</ele>
        <time>2022-04-03T07:56:56Z</time>
      </trkpt>
      <trkpt lat="36.881698" lon="-3.766911">
        <ele>1309.5</ele>
        <time>2022-04-03T07:57:50Z</time>
      </trkpt>
      <trkpt lat="36.881831" lon="-3.767073">
        <ele>1307.5</ele>
        <time>2022-04-03T07:58:04Z</time>
      </trkpt>
      <trkpt lat="36.881997" lon="-3.767194">
        <ele>1305.6</ele>
        <time>2022-04-03T07:58:19Z</time>
      </trkpt>
      <trkpt lat="36.882166" lon="-3.767219">
        <ele>1303.7</ele>
        <time>2022-04-03T07:58:49Z</time>
      </trkpt>
      <trkpt lat="36.882273" lon="-3.767281">
        <ele>1301.8</ele>
        <time>2022-04-03T08:02:00Z</time>
      </trkpt>
      <trkpt lat="36.882490" lon="-3.767312">
        <ele>1298.4</ele>
        <time>2022-04-03T08:02:34Z</time>
      </trkpt>
      <trkpt lat="36.882715" lon="-3.767386">
        <ele>1294.1</ele>
        <time>2022-04-03T08:02:52Z</time>
      </trkpt>
      <trkpt lat="36.882843" lon="-3.767577">
        <ele>1292.6</ele>
        <time>2022-04-03T08:03:06Z</time>
      </trkpt>
      <trkpt lat="36.882995" lon="-3.767756">
        <ele>1294.1</ele>
        <time>2022-04-03T08:03:22Z</time>
      </trkpt>
      <trkpt lat="36.883188" lon="-3.767817">
        <ele>1297.4</ele>
        <time>2022-04-03T08:03:40Z</time>
      </trkpt>
      <trkpt lat="36.883384" lon="-3.767833">
        <ele>1298.9</ele>
        <time>2022-04-03T08:03:55Z</time>
      </trkpt>
      <trkpt lat="36.883592" lon="-3.767898">
        <ele>1300.8</ele>
        <time>2022-04-03T08:04:10Z</time>
      </trkpt>
      <trkpt lat="36.883747" lon="-3.768037">
        <ele>1302.7</ele>
        <time>2022-04-03T08:04:25Z</time>
      </trkpt>
      <trkpt lat="36.883954" lon="-3.768021">
        <ele>1302.7</ele>
        <time>2022-04-03T08:04:40Z</time>
      </trkpt>
      <trkpt lat="36.884167" lon="-3.767971">
        <ele>1301.8</ele>
        <time>2022-04-03T08:04:54Z</time>
      </trkpt>
      <trkpt lat="36.884370" lon="-3.767939">
        <ele>1299.8</ele>
        <time>2022-04-03T08:05:07Z</time>
      </trkpt>
      <trkpt lat="36.884586" lon="-3.768016">
        <ele>1299.8</ele>
        <time>2022-04-03T08:05:21Z</time>
      </trkpt>
      <trkpt lat="36.884771" lon="-3.768120">
        <ele>1299.8</ele>
        <time>2022-04-03T08:05:37Z</time>
      </trkpt>
      <trkpt lat="36.884995" lon="-3.768162">
        <ele>1298.9</ele>
        <time>2022-04-03T08:05:52Z</time>
      </trkpt>
      <trkpt lat="36.885213" lon="-3.768120">
        <ele>1298.4</ele>
        <time>2022-04-03T08:06:07Z</time>
      </trkpt>
      <trkpt lat="36.885430" lon="-3.768175">
        <ele>1299.4</ele>
        <time>2022-04-03T08:06:24Z</time>
      </trkpt>
      <trkpt lat="36.885588" lon="-3.768404">
        <ele>1300.8</ele>
        <time>2022-04-03T08:06:42Z</time>
      </trkpt>
      <trkpt lat="36.885732" lon="-3.768598">
        <ele>1302.2</ele>
        <time>2022-04-03T08:06:55Z</time>
      </trkpt>
      <trkpt lat="36.885883" lon="-3.768763">
        <ele>1302.7</ele>
        <time>2022-04-03T08:07:10Z</time>
      </trkpt>
      <trkpt lat="36.885972" lon="-3.768981">
        <ele>1303.2</ele>
        <time>2022-04-03T08:07:26Z</time>
      </trkpt>
      <trkpt lat="36.886066" lon="-3.768966">
        <ele>1301.8</ele>
        <time>2022-04-03T08:11:12Z</time>
      </trkpt>
      <trkpt lat="36.886238" lon="-3.769004">
        <ele>1300.3</ele>
        <time>2022-04-03T08:11:55Z</time>
      </trkpt>
      <trkpt lat="36.886408" lon="-3.769167">
        <ele>1299.4</ele>
        <time>2022-04-03T08:12:11Z</time>
      </trkpt>
      <trkpt lat="36.886613" lon="-3.769415">
        <ele>1297.0</ele>
        <time>2022-04-03T08:12:33Z</time>
      </trkpt>
      <trkpt lat="36.886840" lon="-3.769704">
        <ele>1295.0</ele>
        <time>2022-04-03T08:12:57Z</time>
      </trkpt>
      <trkpt lat="36.887191" lon="-3.769824">
        <ele>1294.6</ele>
        <time>2022-04-03T08:13:22Z</time>
      </trkpt>
      <trkpt lat="36.887471" lon="-3.770236">
        <ele>1293.1</ele>
        <time>2022-04-03T08:13:51Z</time>
      </trkpt>
      <trkpt lat="36.887813" lon="-3.770796">
        <ele>1290.7</ele>
        <time>2022-04-03T08:14:30Z</time>
      </trkpt>
      <trkpt lat="36.887951" lon="-3.771148">
        <ele>1288.3</ele>
        <time>2022-04-03T08:14:47Z</time>
      </trkpt>
      <trkpt lat="36.888013" lon="-3.771461">
        <ele>1287.8</ele>
        <time>2022-04-03T08:15:02Z</time>
      </trkpt>
      <trkpt lat="36.888060" lon="-3.771788">
        <ele>1286.4</ele>
        <time>2022-04-03T08:15:22Z</time>
      </trkpt>
      <trkpt lat="36.887997" lon="-3.772113">
        <ele>1287.3</ele>
        <time>2022-04-03T08:15:39Z</time>
      </trkpt>
      <trkpt lat="36.888077" lon="-3.772377">
        <ele>1287.3</ele>
        <time>2022-04-03T08:15:55Z</time>
      </trkpt>
      <trkpt lat="36.888143" lon="-3.772653">
        <ele>1285.9</ele>
        <time>2022-04-03T08:16:11Z</time>
      </trkpt>
      <trkpt lat="36.888096" lon="-3.772911">
        <ele>1284.0</ele>
        <time>2022-04-03T08:16:26Z</time>
      </trkpt>
      <trkpt lat="36.888085" lon="-3.773176">
        <ele>1284.5</ele>
        <time>2022-04-03T08:16:40Z</time>
      </trkpt>
      <trkpt lat="36.888122" lon="-3.773451">
        <ele>1284.9</ele>
        <time>2022-04-03T08:16:55Z</time>
      </trkpt>
      <trkpt lat="36.888114" lon="-3.773717">
        <ele>1285.4</ele>
        <time>2022-04-03T08:17:10Z</time>
      </trkpt>
      <trkpt lat="36.888219" lon="-3.773948">
        <ele>1285.4</ele>
        <time>2022-04-03T08:17:24Z</time>
      </trkpt>
      <trkpt lat="36.888417" lon="-3.774141">
        <ele>1287.3</ele>
        <time>2022-04-03T08:17:42Z</time>
      </trkpt>
      <trkpt lat="36.888626" lon="-3.774274">
        <ele>1287.8</ele>
        <time>2022-04-03T08:17:57Z</time>
      </trkpt>
      <trkpt lat="36.888625" lon="-3.774591">
        <ele>1287.8</ele>
        <time>2022-04-03T08:18:15Z</time>
      </trkpt>
      <trkpt lat="36.888571" lon="-3.774901">
        <ele>1288.8</ele>
        <time>2022-04-03T08:18:34Z</time>
      </trkpt>
      <trkpt lat="36.888607" lon="-3.775227">
        <ele>1289.3</ele>
        <time>2022-04-03T08:18:50Z</time>
      </trkpt>
      <trkpt lat="36.888661" lon="-3.775514">
        <ele>1290.2</ele>
        <time>2022-04-03T08:19:09Z</time>
      </trkpt>
      <trkpt lat="36.888866" lon="-3.775889">
        <ele>1290.7</ele>
        <time>2022-04-03T08:19:37Z</time>
      </trkpt>
      <trkpt lat="36.889109" lon="-3.776163">
        <ele>1292.6</ele>
        <time>2022-04-03T08:20:01Z</time>
      </trkpt>
      <trkpt lat="36.889314" lon="-3.776395">
        <ele>1293.1</ele>
        <time>2022-04-03T08:20:19Z</time>
      </trkpt>
      <trkpt lat="36.889513" lon="-3.776617">
        <ele>1293.1</ele>
        <time>2022-04-03T08:20:37Z</time>
      </trkpt>
      <trkpt lat="36.889663" lon="-3.776737">
        <ele>1292.6</ele>
        <time>2022-04-03T08:20:53Z</time>
      </trkpt>
      <trkpt lat="36.889848" lon="-3.776943">
        <ele>1290.7</ele>
        <time>2022-04-03T08:21:11Z</time>
      </trkpt>
      <trkpt lat="36.889976" lon="-3.777207">
        <ele>1289.3</ele>
        <time>2022-04-03T08:21:27Z</time>
      </trkpt>
      <trkpt lat="36.890078" lon="-3.777483">
        <ele>1286.9</ele>
        <time>2022-04-03T08:21:47Z</time>
      </trkpt>
      <trkpt lat="36.890385" lon="-3.777724">
        <ele>1284.5</ele>
        <time>2022-04-03T08:22:10Z</time>
      </trkpt>
      <trkpt lat="36.890596" lon="-3.777890">
        <ele>1283.5</ele>
        <time>2022-04-03T08:22:25Z</time>
      </trkpt>
      <trkpt lat="36.890756" lon="-3.778114">
        <ele>1283.0</ele>
        <time>2022-04-03T08:22:41Z</time>
      </trkpt>
      <trkpt lat="36.891014" lon="-3.778300">
        <ele>1282.1</ele>
        <time>2022-04-03T08:23:01Z</time>
      </trkpt>
      <trkpt lat="36.891260" lon="-3.778495">
        <ele>1282.5</ele>
        <time>2022-04-03T08:23:18Z</time>
      </trkpt>
      <trkpt lat="36.891536" lon="-3.778548">
        <ele>1283.0</ele>
        <time>2022-04-03T08:23:39Z</time>
      </trkpt>
      <trkpt lat="36.892157" lon="-3.778483">
        <ele>1286.4</ele>
        <time>2022-04-03T08:24:25Z</time>
      </trkpt>
      <trkpt lat="36.892545" lon="-3.778509">
        <ele>1289.3</ele>
        <time>2022-04-03T08:24:52Z</time>
      </trkpt>
      <trkpt lat="36.892724" lon="-3.778658">
        <ele>1290.7</ele>
        <time>2022-04-03T08:26:07Z</time>
      </trkpt>
      <trkpt lat="36.892811" lon="-3.778888">
        <ele>1292.1</ele>
        <time>2022-04-03T08:26:40Z</time>
      </trkpt>
      <trkpt lat="36.892965" lon="-3.779066">
        <ele>1294.6</ele>
        <time>2022-04-03T08:26:59Z</time>
      </trkpt>
      <trkpt lat="36.893122" lon="-3.779175">
        <ele>1297.0</ele>
        <time>2022-04-03T08:27:25Z</time>
      </trkpt>
      <trkpt lat="36.893241" lon="-3.779363">
        <ele>1300.3</ele>
        <time>2022-04-03T08:27:48Z</time>
      </trkpt>
      <trkpt lat="36.893371" lon="-3.779452">
        <ele>1302.7</ele>
        <time>2022-04-03T08:28:22Z</time>
      </trkpt>
      <trkpt lat="36.893454" lon="-3.779395">
        <ele>1306.6</ele>
        <time>2022-04-03T08:31:29Z</time>
      </trkpt>
      <trkpt lat="36.893632" lon="-3.779439">
        <ele>1304.2</ele>
        <time>2022-04-03T08:31:49Z</time>
      </trkpt>
      <trkpt lat="36.893769" lon="-3.779591">
        <ele>1302.2</ele>
        <time>2022-04-03T08:32:09Z</time>
      </trkpt>
      <trkpt lat="36.893904" lon="-3.779714">
        <ele>1297.4</ele>
        <time>2022-04-03T08:32:41Z</time>
      </trkpt>
      <trkpt lat="36.894066" lon="-3.779819">
        <ele>1291.2</ele>
        <time>2022-04-03T08:33:12Z</time>
      </trkpt>
      <trkpt lat="36.894253" lon="-3.779898">
        <ele>1287.8</ele>
        <time>2022-04-03T08:33:37Z</time>
      </trkpt>
      <trkpt lat="36.894428" lon="-3.779838">
        <ele>1280.6</ele>
        <time>2022-04-03T08:34:12Z</time>
      </trkpt>
      <trkpt lat="36.894622" lon="-3.779920">
        <ele>1276.3</ele>
        <time>2022-04-03T08:34:32Z</time>
      </trkpt>
      <trkpt lat="36.894825" lon="-3.779990">
        <ele>1272.9</ele>
        <time>2022-04-03T08:34:48Z</time>
      </trkpt>
      <trkpt lat="36.895028" lon="-3.780055">
        <ele>1271.0</ele>
        <time>2022-04-03T08:35:03Z</time>
      </trkpt>
      <trkpt lat="36.895200" lon="-3.780155">
        <ele>1267.6</ele>
        <time>2022-04-03T08:35:17Z</time>
      </trkpt>
      <trkpt lat="36.895360" lon="-3.780269">
        <ele>1265.2</ele>
        <time>2022-04-03T08:35:30Z</time>
      </trkpt>
      <trkpt lat="36.895468" lon="-3.780448">
        <ele>1262.3</ele>
        <time>2022-04-03T08:35:47Z</time>
      </trkpt>
      <trkpt lat="36.895476" lon="-3.780703">
        <ele>1262.8</ele>
        <time>2022-04-03T08:36:01Z</time>
      </trkpt>
      <trkpt lat="36.895482" lon="-3.780955">
        <ele>1261.9</ele>
        <time>2022-04-03T08:36:14Z</time>
      </trkpt>
      <trkpt lat="36.895497" lon="-3.781205">
        <ele>1261.9</ele>
        <time>2022-04-03T08:36:28Z</time>
      </trkpt>
      <trkpt lat="36.895507" lon="-3.781465">
        <ele>1261.9</ele>
        <time>2022-04-03T08:36:41Z</time>
      </trkpt>
      <trkpt lat="36.895508" lon="-3.781744">
        <ele>1260.4</ele>
        <time>2022-04-03T08:36:57Z</time>
      </trkpt>
      <trkpt lat="36.895421" lon="-3.781970">
        <ele>1259.0</ele>
        <time>2022-04-03T08:37:11Z</time>
      </trkpt>
      <trkpt lat="36.895228" lon="-3.781973">
        <ele>1257.5</ele>
        <time>2022-04-03T08:37:25Z</time>
      </trkpt>
      <trkpt lat="36.895038" lon="-3.781899">
        <ele>1256.1</ele>
        <time>2022-04-03T08:37:38Z</time>
      </trkpt>
      <trkpt lat="36.894860" lon="-3.781798">
        <ele>1254.2</ele>
        <time>2022-04-03T08:37:52Z</time>
      </trkpt>
      <trkpt lat="36.894665" lon="-3.781723">
        <ele>1253.7</ele>
        <time>2022-04-03T08:38:05Z</time>
      </trkpt>
      <trkpt lat="36.894481" lon="-3.781626">
        <ele>1252.7</ele>
        <time>2022-04-03T08:38:18Z</time>
      </trkpt>
      <trkpt lat="36.894300" lon="-3.781593">
        <ele>1250.8</ele>
        <time>2022-04-03T08:38:32Z</time>
      </trkpt>
      <trkpt lat="36.894128" lon="-3.781735">
        <ele>1250.3</ele>
        <time>2022-04-03T08:38:45Z</time>
      </trkpt>
      <trkpt lat="36.893907" lon="-3.781656">
        <ele>1248.4</ele>
        <time>2022-04-03T08:39:01Z</time>
      </trkpt>
      <trkpt lat="36.893685" lon="-3.781576">
        <ele>1246.5</ele>
        <time>2022-04-03T08:39:18Z</time>
      </trkpt>
      <trkpt lat="36.893700" lon="-3.781790">
        <ele>1244.1</ele>
        <time>2022-04-03T08:39:35Z</time>
      </trkpt>
      <trkpt lat="36.893938" lon="-3.781939">
        <ele>1241.2</ele>
        <time>2022-04-03T08:39:55Z</time>
      </trkpt>
      <trkpt lat="36.894169" lon="-3.782125">
        <ele>1237.4</ele>
        <time>2022-04-03T08:40:12Z</time>
      </trkpt>
      <trkpt lat="36.894348" lon="-3.782215">
        <ele>1235.0</ele>
        <time>2022-04-03T08:40:28Z</time>
      </trkpt>
      <trkpt lat="36.894549" lon="-3.782504">
        <ele>1232.1</ele>
        <time>2022-04-03T08:40:48Z</time>
      </trkpt>
      <trkpt lat="36.894672" lon="-3.782807">
        <ele>1229.2</ele>
        <time>2022-04-03T08:41:35Z</time>
      </trkpt>
      <trkpt lat="36.894684" lon="-3.783112">
        <ele>1227.3</ele>
        <time>2022-04-03T08:41:51Z</time>
      </trkpt>
      <trkpt lat="36.894686" lon="-3.783387">
        <ele>1223.4</ele>
        <time>2022-04-03T08:42:18Z</time>
      </trkpt>
      <trkpt lat="36.894933" lon="-3.783662">
        <ele>1219.6</ele>
        <time>2022-04-03T08:42:40Z</time>
      </trkpt>
      <trkpt lat="36.895382" lon="-3.783788">
        <ele>1218.1</ele>
        <time>2022-04-03T08:43:11Z</time>
      </trkpt>
      <trkpt lat="36.895780" lon="-3.784034">
        <ele>1212.4</ele>
        <time>2022-04-03T08:43:35Z</time>
      </trkpt>
      <trkpt lat="36.895918" lon="-3.784227">
        <ele>1210.0</ele>
        <time>2022-04-03T08:43:49Z</time>
      </trkpt>
      <trkpt lat="36.896162" lon="-3.784288">
        <ele>1208.5</ele>
        <time>2022-04-03T08:44:08Z</time>
      </trkpt>
      <trkpt lat="36.896359" lon="-3.784408">
        <ele>1207.1</ele>
        <time>2022-04-03T08:44:22Z</time>
      </trkpt>
      <trkpt lat="36.896527" lon="-3.784552">
        <ele>1203.7</ele>
        <time>2022-04-03T08:44:35Z</time>
      </trkpt>
      <trkpt lat="36.896541" lon="-3.784800">
        <ele>1200.3</ele>
        <time>2022-04-03T08:44:50Z</time>
      </trkpt>
      <trkpt lat="36.896344" lon="-3.784855">
        <ele>1198.9</ele>
        <time>2022-04-03T08:45:06Z</time>
      </trkpt>
      <trkpt lat="36.896111" lon="-3.784859">
        <ele>1196.0</ele>
        <time>2022-04-03T08:45:20Z</time>
      </trkpt>
      <trkpt lat="36.895877" lon="-3.784860">
        <ele>1193.1</ele>
        <time>2022-04-03T08:45:36Z</time>
      </trkpt>
      <trkpt lat="36.895610" lon="-3.784841">
        <ele>1193.6</ele>
        <time>2022-04-03T08:45:52Z</time>
      </trkpt>
      <trkpt lat="36.895338" lon="-3.784908">
        <ele>1191.7</ele>
        <time>2022-04-03T08:46:10Z</time>
      </trkpt>
      <trkpt lat="36.895076" lon="-3.784830">
        <ele>1188.3</ele>
        <time>2022-04-03T08:46:27Z</time>
      </trkpt>
      <trkpt lat="36.894798" lon="-3.784759">
        <ele>1187.4</ele>
        <time>2022-04-03T08:46:44Z</time>
      </trkpt>
      <trkpt lat="36.894607" lon="-3.784961">
        <ele>1185.4</ele>
        <time>2022-04-03T08:47:02Z</time>
      </trkpt>
      <trkpt lat="36.894571" lon="-3.785247">
        <ele>1183.0</ele>
        <time>2022-04-03T08:47:21Z</time>
      </trkpt>
      <trkpt lat="36.894586" lon="-3.785655">
        <ele>1178.2</ele>
        <time>2022-04-03T08:47:46Z</time>
      </trkpt>
      <trkpt lat="36.894294" lon="-3.785903">
        <ele>1174.9</ele>
        <time>2022-04-03T08:48:10Z</time>
      </trkpt>
      <trkpt lat="36.894007" lon="-3.785974">
        <ele>1170.5</ele>
        <time>2022-04-03T08:48:25Z</time>
      </trkpt>
      <trkpt lat="36.893817" lon="-3.785962">
        <ele>1168.6</ele>
        <time>2022-04-03T08:48:38Z</time>
      </trkpt>
      <trkpt lat="36.893615" lon="-3.785891">
        <ele>1166.7</ele>
        <time>2022-04-03T08:48:53Z</time>
      </trkpt>
      <trkpt lat="36.893401" lon="-3.785841">
        <ele>1164.8</ele>
        <time>2022-04-03T08:49:07Z</time>
      </trkpt>
      <trkpt lat="36.893207" lon="-3.785789">
        <ele>1160.9</ele>
        <time>2022-04-03T08:49:20Z</time>
      </trkpt>
      <trkpt lat="36.892991" lon="-3.785725">
        <ele>1160.0</ele>
        <time>2022-04-03T08:49:34Z</time>
      </trkpt>
      <trkpt lat="36.892797" lon="-3.785624">
        <ele>1158.0</ele>
        <time>2022-04-03T08:49:47Z</time>
      </trkpt>
      <trkpt lat="36.892609" lon="-3.785529">
        <ele>1156.6</ele>
        <time>2022-04-03T08:50:00Z</time>
      </trkpt>
      <trkpt lat="36.892427" lon="-3.785414">
        <ele>1155.6</ele>
        <time>2022-04-03T08:50:13Z</time>
      </trkpt>
      <trkpt lat="36.892300" lon="-3.785218">
        <ele>1154.7</ele>
        <time>2022-04-03T08:50:27Z</time>
      </trkpt>
      <trkpt lat="36.892129" lon="-3.785019">
        <ele>1149.4</ele>
        <time>2022-04-03T08:50:43Z</time>
      </trkpt>
      <trkpt lat="36.891993" lon="-3.785214">
        <ele>1147.5</ele>
        <time>2022-04-03T08:50:58Z</time>
      </trkpt>
      <trkpt lat="36.891846" lon="-3.785437">
        <ele>1146.0</ele>
        <time>2022-04-03T08:51:13Z</time>
      </trkpt>
      <trkpt lat="36.891697" lon="-3.785680">
        <ele>1142.2</ele>
        <time>2022-04-03T08:51:29Z</time>
      </trkpt>
      <trkpt lat="36.891447" lon="-3.785709">
        <ele>1137.4</ele>
        <time>2022-04-03T08:51:47Z</time>
      </trkpt>
      <trkpt lat="36.891166" lon="-3.785686">
        <ele>1136.4</ele>
        <time>2022-04-03T08:52:01Z</time>
      </trkpt>
      <trkpt lat="36.891043" lon="-3.785822">
        <ele>1135.9</ele>
        <time>2022-04-03T08:52:14Z</time>
      </trkpt>
      <trkpt lat="36.890897" lon="-3.785982">
        <ele>1134.0</ele>
        <time>2022-04-03T08:52:27Z</time>
      </trkpt>
      <trkpt lat="36.890718" lon="-3.786132">
        <ele>1131.1</ele>
        <time>2022-04-03T08:52:41Z</time>
      </trkpt>
      <trkpt lat="36.890575" lon="-3.786288">
        <ele>1128.2</ele>
        <time>2022-04-03T08:52:55Z</time>
      </trkpt>
      <trkpt lat="36.890352" lon="-3.786250">
        <ele>1125.8</ele>
        <time>2022-04-03T08:53:10Z</time>
      </trkpt>
      <trkpt lat="36.890131" lon="-3.786173">
        <ele>1122.0</ele>
        <time>2022-04-03T08:53:25Z</time>
      </trkpt>
      <trkpt lat="36.889934" lon="-3.786096">
        <ele>1121.0</ele>
        <time>2022-04-03T08:53:42Z</time>
      </trkpt>
      <trkpt lat="36.889823" lon="-3.785900">
        <ele>1120.1</ele>
        <time>2022-04-03T08:53:55Z</time>
      </trkpt>
      <trkpt lat="36.889683" lon="-3.785973">
        <ele>1116.7</ele>
        <time>2022-04-03T08:54:10Z</time>
      </trkpt>
      <trkpt lat="36.889628" lon="-3.786247">
        <ele>1114.8</ele>
        <time>2022-04-03T08:54:24Z</time>
      </trkpt>
      <trkpt lat="36.889506" lon="-3.786465">
        <ele>1112.9</ele>
        <time>2022-04-03T08:54:38Z</time>
      </trkpt>
      <trkpt lat="36.889333" lon="-3.786647">
        <ele>1110.5</ele>
        <time>2022-04-03T08:54:53Z</time>
      </trkpt>
      <trkpt lat="36.889150" lon="-3.786772">
        <ele>1109.5</ele>
        <time>2022-04-03T08:55:07Z</time>
      </trkpt>
      <trkpt lat="36.889037" lon="-3.786978">
        <ele>1105.2</ele>
        <time>2022-04-03T08:55:20Z</time>
      </trkpt>
      <trkpt lat="36.889000" lon="-3.787210">
        <ele>1105.2</ele>
        <time>2022-04-03T08:55:38Z</time>
      </trkpt>
      <trkpt lat="36.888872" lon="-3.787249">
        <ele>1104.7</ele>
        <time>2022-04-03T08:56:11Z</time>
      </trkpt>
      <trkpt lat="36.888747" lon="-3.787384">
        <ele>1103.7</ele>
        <time>2022-04-03T08:56:45Z</time>
      </trkpt>
      <trkpt lat="36.888738" lon="-3.787604">
        <ele>1102.3</ele>
        <time>2022-04-03T08:57:37Z</time>
      </trkpt>
      <trkpt lat="36.888696" lon="-3.787628">
        <ele>1101.3</ele>
        <time>2022-04-03T08:58:53Z</time>
      </trkpt>
      <trkpt lat="36.888600" lon="-3.787518">
        <ele>1099.4</ele>
        <time>2022-04-03T08:59:38Z</time>
      </trkpt>
      <trkpt lat="36.888552" lon="-3.787614">
        <ele>1095.6</ele>
        <time>2022-04-03T09:00:25Z</time>
      </trkpt>
      <trkpt lat="36.888327" lon="-3.787539">
        <ele>1088.8</ele>
        <time>2022-04-03T09:01:07Z</time>
      </trkpt>
      <trkpt lat="36.888264" lon="-3.787672">
        <ele>1084.0</ele>
        <time>2022-04-03T09:01:42Z</time>
      </trkpt>
      <trkpt lat="36.888152" lon="-3.787429">
        <ele>1081.6</ele>
        <time>2022-04-03T09:01:58Z</time>
      </trkpt>
      <trkpt lat="36.888037" lon="-3.787199">
        <ele>1079.7</ele>
        <time>2022-04-03T09:02:14Z</time>
      </trkpt>
      <trkpt lat="36.887907" lon="-3.786964">
        <ele>1077.8</ele>
        <time>2022-04-03T09:02:29Z</time>
      </trkpt>
      <trkpt lat="36.887818" lon="-3.786674">
        <ele>1074.9</ele>
        <time>2022-04-03T09:02:46Z</time>
      </trkpt>
      <trkpt lat="36.887771" lon="-3.786416">
        <ele>1073.9</ele>
        <time>2022-04-03T09:03:00Z</time>
      </trkpt>
      <trkpt lat="36.887687" lon="-3.786095">
        <ele>1070.6</ele>
        <time>2022-04-03T09:03:18Z</time>
      </trkpt>
      <trkpt lat="36.887401" lon="-3.785685">
        <ele>1069.6</ele>
        <time>2022-04-03T09:03:47Z</time>
      </trkpt>
      <trkpt lat="36.887090" lon="-3.785635">
        <ele>1067.7</ele>
        <time>2022-04-03T09:04:08Z</time>
      </trkpt>
      <trkpt lat="36.886834" lon="-3.785555">
        <ele>1067.2</ele>
        <time>2022-04-03T09:04:22Z</time>
      </trkpt>
      <trkpt lat="36.886620" lon="-3.785422">
        <ele>1067.2</ele>
        <time>2022-04-03T09:04:40Z</time>
      </trkpt>
      <trkpt lat="36.886376" lon="-3.785279">
        <ele>1066.7</ele>
        <time>2022-04-03T09:04:57Z</time>
      </trkpt>
      <trkpt lat="36.886173" lon="-3.785243">
        <ele>1066.2</ele>
        <time>2022-04-03T09:05:12Z</time>
      </trkpt>
      <trkpt lat="36.886029" lon="-3.785283">
        <ele>1065.8</ele>
        <time>2022-04-03T09:05:25Z</time>
      </trkpt>
      <trkpt lat="36.885993" lon="-3.785594">
        <ele>1063.8</ele>
        <time>2022-04-03T09:05:43Z</time>
      </trkpt>
      <trkpt lat="36.886296" lon="-3.785713">
        <ele>1062.4</ele>
        <time>2022-04-03T09:05:57Z</time>
      </trkpt>
      <trkpt lat="36.886465" lon="-3.785779">
        <ele>1061.0</ele>
        <time>2022-04-03T09:06:08Z</time>
      </trkpt>
      <trkpt lat="36.886708" lon="-3.785920">
        <ele>1062.4</ele>
        <time>2022-04-03T09:06:50Z</time>
      </trkpt>
      <trkpt lat="36.886960" lon="-3.786254">
        <ele>1062.9</ele>
        <time>2022-04-03T09:07:39Z</time>
      </trkpt>
      <trkpt lat="36.887227" lon="-3.786583">
        <ele>1064.3</ele>
        <time>2022-04-03T09:08:09Z</time>
      </trkpt>
      <trkpt lat="36.887199" lon="-3.786954">
        <ele>1064.8</ele>
        <time>2022-04-03T09:08:30Z</time>
      </trkpt>
      <trkpt lat="36.887156" lon="-3.787336">
        <ele>1063.8</ele>
        <time>2022-04-03T09:08:49Z</time>
      </trkpt>
      <trkpt lat="36.887147" lon="-3.787850">
        <ele>1062.9</ele>
        <time>2022-04-03T09:09:17Z</time>
      </trkpt>
      <trkpt lat="36.887288" lon="-3.788012">
        <ele>1062.4</ele>
        <time>2022-04-03T09:09:33Z</time>
      </trkpt>
      <trkpt lat="36.887484" lon="-3.788144">
        <ele>1062.4</ele>
        <time>2022-04-03T09:09:47Z</time>
      </trkpt>
      <trkpt lat="36.887643" lon="-3.788443">
        <ele>1062.9</ele>
        <time>2022-04-03T09:10:03Z</time>
      </trkpt>
      <trkpt lat="36.887729" lon="-3.788839">
        <ele>1062.4</ele>
        <time>2022-04-03T09:10:25Z</time>
      </trkpt>
      <trkpt lat="36.887867" lon="-3.789118">
        <ele>1061.9</ele>
        <time>2022-04-03T09:10:40Z</time>
      </trkpt>
      <trkpt lat="36.888024" lon="-3.789261">
        <ele>1061.4</ele>
        <time>2022-04-03T09:10:54Z</time>
      </trkpt>
      <trkpt lat="36.888190" lon="-3.789340">
        <ele>1061.4</ele>
        <time>2022-04-03T09:11:09Z</time>
      </trkpt>
      <trkpt lat="36.888188" lon="-3.789615">
        <ele>1061.0</ele>
        <time>2022-04-03T09:11:29Z</time>
      </trkpt>
      <trkpt lat="36.888155" lon="-3.789938">
        <ele>1061.0</ele>
        <time>2022-04-03T09:11:48Z</time>
      </trkpt>
      <trkpt lat="36.888006" lon="-3.790099">
        <ele>1060.0</ele>
        <time>2022-04-03T09:12:04Z</time>
      </trkpt>
      <trkpt lat="36.887820" lon="-3.790371">
        <ele>1058.1</ele>
        <time>2022-04-03T09:12:24Z</time>
      </trkpt>
      <trkpt lat="36.887688" lon="-3.790634">
        <ele>1058.5</ele>
        <time>2022-04-03T09:12:43Z</time>
      </trkpt>
      <trkpt lat="36.887525" lon="-3.790959">
        <ele>1059.0</ele>
        <time>2022-04-03T09:13:02Z</time>
      </trkpt>
      <trkpt lat="36.887418" lon="-3.791245">
        <ele>1061.0</ele>
        <time>2022-04-03T09:13:20Z</time>
      </trkpt>
      <trkpt lat="36.887439" lon="-3.791565">
        <ele>1061.0</ele>
        <time>2022-04-03T09:13:38Z</time>
      </trkpt>
      <trkpt lat="36.887531" lon="-3.791834">
        <ele>1061.9</ele>
        <time>2022-04-03T09:13:56Z</time>
      </trkpt>
      <trkpt lat="36.887664" lon="-3.792137">
        <ele>1062.4</ele>
        <time>2022-04-03T09:14:15Z</time>
      </trkpt>
      <trkpt lat="36.887611" lon="-3.792404">
        <ele>1063.4</ele>
        <time>2022-04-03T09:14:32Z</time>
      </trkpt>
      <trkpt lat="36.887467" lon="-3.792583">
        <ele>1065.3</ele>
        <time>2022-04-03T09:14:46Z</time>
      </trkpt>
      <trkpt lat="36.887340" lon="-3.792767">
        <ele>1062.4</ele>
        <time>2022-04-03T09:15:00Z</time>
      </trkpt>
      <trkpt lat="36.887194" lon="-3.792934">
        <ele>1063.4</ele>
        <time>2022-04-03T09:15:15Z</time>
      </trkpt>
      <trkpt lat="36.887009" lon="-3.793081">
        <ele>1064.8</ele>
        <time>2022-04-03T09:15:31Z</time>
      </trkpt>
      <trkpt lat="36.886869" lon="-3.793258">
        <ele>1066.7</ele>
        <time>2022-04-03T09:15:46Z</time>
      </trkpt>
      <trkpt lat="36.886772" lon="-3.793452">
        <ele>1067.2</ele>
        <time>2022-04-03T09:16:02Z</time>
      </trkpt>
      <trkpt lat="36.886727" lon="-3.793691">
        <ele>1067.2</ele>
        <time>2022-04-03T09:16:17Z</time>
      </trkpt>
      <trkpt lat="36.886777" lon="-3.793909">
        <ele>1067.2</ele>
        <time>2022-04-03T09:16:33Z</time>
      </trkpt>
      <trkpt lat="36.886814" lon="-3.794174">
        <ele>1066.2</ele>
        <time>2022-04-03T09:16:48Z</time>
      </trkpt>
      <trkpt lat="36.886829" lon="-3.794422">
        <ele>1065.8</ele>
        <time>2022-04-03T09:17:02Z</time>
      </trkpt>
      <trkpt lat="36.886762" lon="-3.794672">
        <ele>1066.2</ele>
        <time>2022-04-03T09:17:17Z</time>
      </trkpt>
      <trkpt lat="36.886649" lon="-3.794895">
        <ele>1064.8</ele>
        <time>2022-04-03T09:17:31Z</time>
      </trkpt>
      <trkpt lat="36.886477" lon="-3.795037">
        <ele>1067.2</ele>
        <time>2022-04-03T09:17:49Z</time>
      </trkpt>
      <trkpt lat="36.886267" lon="-3.795245">
        <ele>1067.7</ele>
        <time>2022-04-03T09:18:08Z</time>
      </trkpt>
      <trkpt lat="36.886043" lon="-3.795306">
        <ele>1069.6</ele>
        <time>2022-04-03T09:18:26Z</time>
      </trkpt>
      <trkpt lat="36.885814" lon="-3.795293">
        <ele>1068.6</ele>
        <time>2022-04-03T09:18:41Z</time>
      </trkpt>
      <trkpt lat="36.885650" lon="-3.795215">
        <ele>1069.6</ele>
        <time>2022-04-03T09:18:57Z</time>
      </trkpt>
      <trkpt lat="36.885498" lon="-3.795048">
        <ele>1070.6</ele>
        <time>2022-04-03T09:19:21Z</time>
      </trkpt>
      <trkpt lat="36.885416" lon="-3.794802">
        <ele>1073.0</ele>
        <time>2022-04-03T09:19:36Z</time>
      </trkpt>
      <trkpt lat="36.885315" lon="-3.794545">
        <ele>1073.9</ele>
        <time>2022-04-03T09:19:52Z</time>
      </trkpt>
      <trkpt lat="36.885179" lon="-3.794372">
        <ele>1074.9</ele>
        <time>2022-04-03T09:20:06Z</time>
      </trkpt>
      <trkpt lat="36.885055" lon="-3.794184">
        <ele>1075.4</ele>
        <time>2022-04-03T09:20:21Z</time>
      </trkpt>
      <trkpt lat="36.884861" lon="-3.793995">
        <ele>1076.3</ele>
        <time>2022-04-03T09:20:33Z</time>
      </trkpt>
      <trkpt lat="36.884777" lon="-3.793806">
        <ele>1076.3</ele>
        <time>2022-04-03T09:20:46Z</time>
      </trkpt>
      <trkpt lat="36.884707" lon="-3.793598">
        <ele>1077.3</ele>
        <time>2022-04-03T09:21:01Z</time>
      </trkpt>
      <trkpt lat="36.884616" lon="-3.793377">
        <ele>1078.3</ele>
        <time>2022-04-03T09:21:14Z</time>
      </trkpt>
      <trkpt lat="36.884586" lon="-3.793137">
        <ele>1079.2</ele>
        <time>2022-04-03T09:21:27Z</time>
      </trkpt>
      <trkpt lat="36.884583" lon="-3.792884">
        <ele>1078.3</ele>
        <time>2022-04-03T09:21:41Z</time>
      </trkpt>
      <trkpt lat="36.884562" lon="-3.792653">
        <ele>1078.3</ele>
        <time>2022-04-03T09:21:54Z</time>
      </trkpt>
      <trkpt lat="36.884527" lon="-3.792417">
        <ele>1079.7</ele>
        <time>2022-04-03T09:22:08Z</time>
      </trkpt>
      <trkpt lat="36.884507" lon="-3.792185">
        <ele>1080.7</ele>
        <time>2022-04-03T09:22:21Z</time>
      </trkpt>
      <trkpt lat="36.884408" lon="-3.791995">
        <ele>1082.6</ele>
        <time>2022-04-03T09:22:34Z</time>
      </trkpt>
      <trkpt lat="36.884301" lon="-3.791876">
        <ele>1084.5</ele>
        <time>2022-04-03T09:23:07Z</time>
      </trkpt>
      <trkpt lat="36.884136" lon="-3.791793">
        <ele>1084.0</ele>
        <time>2022-04-03T09:23:29Z</time>
      </trkpt>
      <trkpt lat="36.883954" lon="-3.791729">
        <ele>1084.5</ele>
        <time>2022-04-03T09:23:41Z</time>
      </trkpt>
      <trkpt lat="36.883703" lon="-3.791773">
        <ele>1083.1</ele>
        <time>2022-04-03T09:24:18Z</time>
      </trkpt>
      <trkpt lat="36.883383" lon="-3.791606">
        <ele>1085.5</ele>
        <time>2022-04-03T09:25:09Z</time>
      </trkpt>
      <trkpt lat="36.883087" lon="-3.791528">
        <ele>1088.3</ele>
        <time>2022-04-03T09:25:22Z</time>
      </trkpt>
      <trkpt lat="36.882866" lon="-3.791603">
        <ele>1090.3</ele>
        <time>2022-04-03T09:25:38Z</time>
      </trkpt>
      <trkpt lat="36.882899" lon="-3.791891">
        <ele>1093.6</ele>
        <time>2022-04-03T09:26:10Z</time>
      </trkpt>
      <trkpt lat="36.882836" lon="-3.792020">
        <ele>1093.2</ele>
        <time>2022-04-03T09:27:48Z</time>
      </trkpt>
      <trkpt lat="36.882638" lon="-3.792059">
        <ele>1095.6</ele>
        <time>2022-04-03T09:28:32Z</time>
      </trkpt>
      <trkpt lat="36.882300" lon="-3.791955">
        <ele>1097.0</ele>
        <time>2022-04-03T09:29:11Z</time>
      </trkpt>
      <trkpt lat="36.882076" lon="-3.791819">
        <ele>1096.5</ele>
        <time>2022-04-03T09:29:26Z</time>
      </trkpt>
      <trkpt lat="36.882039" lon="-3.791432">
        <ele>1099.4</ele>
        <time>2022-04-03T09:30:30Z</time>
      </trkpt>
      <trkpt lat="36.881675" lon="-3.791461">
        <ele>1101.8</ele>
        <time>2022-04-03T09:30:57Z</time>
      </trkpt>
      <trkpt lat="36.881288" lon="-3.791611">
        <ele>1103.3</ele>
        <time>2022-04-03T09:31:12Z</time>
      </trkpt>
      <trkpt lat="36.881076" lon="-3.791911">
        <ele>1105.2</ele>
        <time>2022-04-03T09:31:43Z</time>
      </trkpt>
      <trkpt lat="36.880373" lon="-3.792042">
        <ele>1110.0</ele>
        <time>2022-04-03T09:32:26Z</time>
      </trkpt>
      <trkpt lat="36.880027" lon="-3.792025">
        <ele>1112.4</ele>
        <time>2022-04-03T09:33:01Z</time>
      </trkpt>
      <trkpt lat="36.879550" lon="-3.792030">
        <ele>1116.2</ele>
        <time>2022-04-03T09:34:26Z</time>
      </trkpt>
      <trkpt lat="36.879197" lon="-3.792050">
        <ele>1120.6</ele>
        <time>2022-04-03T09:37:31Z</time>
      </trkpt>
      <trkpt lat="36.878971" lon="-3.792106">
        <ele>1122.0</ele>
        <time>2022-04-03T09:37:51Z</time>
      </trkpt>
      <trkpt lat="36.878704" lon="-3.792189">
        <ele>1123.0</ele>
        <time>2022-04-03T09:38:10Z</time>
      </trkpt>
      <trkpt lat="36.878527" lon="-3.792318">
        <ele>1124.4</ele>
        <time>2022-04-03T09:38:26Z</time>
      </trkpt>
      <trkpt lat="36.878278" lon="-3.792356">
        <ele>1125.4</ele>
        <time>2022-04-03T09:38:47Z</time>
      </trkpt>
      <trkpt lat="36.878009" lon="-3.792302">
        <ele>1125.4</ele>
        <time>2022-04-03T09:39:23Z</time>
      </trkpt>
      <trkpt lat="36.877630" lon="-3.792525">
        <ele>1123.0</ele>
        <time>2022-04-03T09:40:08Z</time>
      </trkpt>
      <trkpt lat="36.877399" lon="-3.792664">
        <ele>1122.5</ele>
        <time>2022-04-03T09:40:26Z</time>
      </trkpt>
      <trkpt lat="36.877181" lon="-3.792747">
        <ele>1121.5</ele>
        <time>2022-04-03T09:40:43Z</time>
      </trkpt>
      <trkpt lat="36.876959" lon="-3.792558">
        <ele>1121.5</ele>
        <time>2022-04-03T09:41:08Z</time>
      </trkpt>
      <trkpt lat="36.876937" lon="-3.792321">
        <ele>1121.5</ele>
        <time>2022-04-03T09:41:22Z</time>
      </trkpt>
      <trkpt lat="36.876881" lon="-3.792082">
        <ele>1120.6</ele>
        <time>2022-04-03T09:41:37Z</time>
      </trkpt>
      <trkpt lat="36.876733" lon="-3.791713">
        <ele>1120.1</ele>
        <time>2022-04-03T09:42:10Z</time>
      </trkpt>
      <trkpt lat="36.876433" lon="-3.791641">
        <ele>1119.1</ele>
        <time>2022-04-03T09:42:29Z</time>
      </trkpt>
      <trkpt lat="36.876077" lon="-3.791757">
        <ele>1120.6</ele>
        <time>2022-04-03T09:43:00Z</time>
      </trkpt>
      <trkpt lat="36.876019" lon="-3.791949">
        <ele>1123.0</ele>
        <time>2022-04-03T09:43:33Z</time>
      </trkpt>
      <trkpt lat="36.875926" lon="-3.792321">
        <ele>1123.9</ele>
        <time>2022-04-03T09:43:59Z</time>
      </trkpt>
      <trkpt lat="36.875711" lon="-3.792419">
        <ele>1125.4</ele>
        <time>2022-04-03T09:44:16Z</time>
      </trkpt>
      <trkpt lat="36.875373" lon="-3.792677">
        <ele>1130.2</ele>
        <time>2022-04-03T09:44:46Z</time>
      </trkpt>
      <trkpt lat="36.875158" lon="-3.792804">
        <ele>1133.1</ele>
        <time>2022-04-03T09:45:19Z</time>
      </trkpt>
      <trkpt lat="36.874928" lon="-3.792761">
        <ele>1133.1</ele>
        <time>2022-04-03T09:45:37Z</time>
      </trkpt>
      <trkpt lat="36.874692" lon="-3.792689">
        <ele>1133.1</ele>
        <time>2022-04-03T09:45:54Z</time>
      </trkpt>
      <trkpt lat="36.874526" lon="-3.792807">
        <ele>1135.0</ele>
        <time>2022-04-03T09:46:11Z</time>
      </trkpt>
      <trkpt lat="36.874406" lon="-3.793027">
        <ele>1135.5</ele>
        <time>2022-04-03T09:46:29Z</time>
      </trkpt>
      <trkpt lat="36.874184" lon="-3.792943">
        <ele>1137.4</ele>
        <time>2022-04-03T09:46:47Z</time>
      </trkpt>
      <trkpt lat="36.873967" lon="-3.793112">
        <ele>1138.3</ele>
        <time>2022-04-03T09:47:22Z</time>
      </trkpt>
      <trkpt lat="36.873931" lon="-3.793356">
        <ele>1138.3</ele>
        <time>2022-04-03T09:47:39Z</time>
      </trkpt>
      <trkpt lat="36.873794" lon="-3.793595">
        <ele>1139.8</ele>
        <time>2022-04-03T09:47:56Z</time>
      </trkpt>
      <trkpt lat="36.873584" lon="-3.793820">
        <ele>1141.2</ele>
        <time>2022-04-03T09:48:13Z</time>
      </trkpt>
      <trkpt lat="36.873497" lon="-3.794081">
        <ele>1141.2</ele>
        <time>2022-04-03T09:48:30Z</time>
      </trkpt>
      <trkpt lat="36.873540" lon="-3.794311">
        <ele>1143.6</ele>
        <time>2022-04-03T09:48:45Z</time>
      </trkpt>
      <trkpt lat="36.873540" lon="-3.794546">
        <ele>1146.0</ele>
        <time>2022-04-03T09:49:00Z</time>
      </trkpt>
      <trkpt lat="36.873544" lon="-3.794794">
        <ele>1148.9</ele>
        <time>2022-04-03T09:49:15Z</time>
      </trkpt>
      <trkpt lat="36.873477" lon="-3.794946">
        <ele>1147.0</ele>
        <time>2022-04-03T09:50:04Z</time>
      </trkpt>
      <trkpt lat="36.873370" lon="-3.795216">
        <ele>1148.9</ele>
        <time>2022-04-03T09:51:21Z</time>
      </trkpt>
      <trkpt lat="36.873203" lon="-3.795454">
        <ele>1149.4</ele>
        <time>2022-04-03T09:51:52Z</time>
      </trkpt>
      <trkpt lat="36.873002" lon="-3.795629">
        <ele>1149.9</ele>
        <time>2022-04-03T09:52:28Z</time>
      </trkpt>
      <trkpt lat="36.872806" lon="-3.795761">
        <ele>1148.9</ele>
        <time>2022-04-03T09:52:44Z</time>
      </trkpt>
      <trkpt lat="36.872766" lon="-3.796006">
        <ele>1148.9</ele>
        <time>2022-04-03T09:53:00Z</time>
      </trkpt>
      <trkpt lat="36.872613" lon="-3.796187">
        <ele>1150.8</ele>
        <time>2022-04-03T09:53:18Z</time>
      </trkpt>
      <trkpt lat="36.872344" lon="-3.796091">
        <ele>1151.3</ele>
        <time>2022-04-03T09:53:39Z</time>
      </trkpt>
      <trkpt lat="36.872098" lon="-3.796020">
        <ele>1153.2</ele>
        <time>2022-04-03T09:53:57Z</time>
      </trkpt>
      <trkpt lat="36.871798" lon="-3.795932">
        <ele>1152.8</ele>
        <time>2022-04-03T09:54:18Z</time>
      </trkpt>
      <trkpt lat="36.871553" lon="-3.795901">
        <ele>1154.7</ele>
        <time>2022-04-03T09:54:37Z</time>
      </trkpt>
      <trkpt lat="36.871313" lon="-3.795563">
        <ele>1155.6</ele>
        <time>2022-04-03T09:55:02Z</time>
      </trkpt>
      <trkpt lat="36.871061" lon="-3.795741">
        <ele>1156.1</ele>
        <time>2022-04-03T09:55:21Z</time>
      </trkpt>
      <trkpt lat="36.870766" lon="-3.795900">
        <ele>1159.0</ele>
        <time>2022-04-03T09:57:11Z</time>
      </trkpt>
      <trkpt lat="36.870589" lon="-3.795927">
        <ele>1160.0</ele>
        <time>2022-04-03T09:57:28Z</time>
      </trkpt>
      <trkpt lat="36.870406" lon="-3.795952">
        <ele>1160.9</ele>
        <time>2022-04-03T09:57:44Z</time>
      </trkpt>
      <trkpt lat="36.870202" lon="-3.796067">
        <ele>1161.4</ele>
        <time>2022-04-03T09:58:00Z</time>
      </trkpt>
      <trkpt lat="36.869939" lon="-3.796109">
        <ele>1162.9</ele>
        <time>2022-04-03T09:58:20Z</time>
      </trkpt>
      <trkpt lat="36.869728" lon="-3.796202">
        <ele>1162.4</ele>
        <time>2022-04-03T09:58:36Z</time>
      </trkpt>
      <trkpt lat="36.869515" lon="-3.796285">
        <ele>1164.3</ele>
        <time>2022-04-03T09:58:52Z</time>
      </trkpt>
      <trkpt lat="36.869299" lon="-3.796294">
        <ele>1166.7</ele>
        <time>2022-04-03T09:59:09Z</time>
      </trkpt>
      <trkpt lat="36.869013" lon="-3.796368">
        <ele>1167.2</ele>
        <time>2022-04-03T09:59:29Z</time>
      </trkpt>
      <trkpt lat="36.868784" lon="-3.796435">
        <ele>1168.6</ele>
        <time>2022-04-03T09:59:44Z</time>
      </trkpt>
      <trkpt lat="36.868565" lon="-3.796541">
        <ele>1170.5</ele>
        <time>2022-04-03T10:00:02Z</time>
      </trkpt>
      <trkpt lat="36.868452" lon="-3.796442">
        <ele>1172.5</ele>
        <time>2022-04-03T10:00:22Z</time>
      </trkpt>
      <trkpt lat="36.868549" lon="-3.796215">
        <ele>1172.0</ele>
        <time>2022-04-03T10:00:38Z</time>
      </trkpt>
      <trkpt lat="36.868597" lon="-3.795961">
        <ele>1173.4</ele>
        <time>2022-04-03T10:00:56Z</time>
      </trkpt>
      <trkpt lat="36.868520" lon="-3.795706">
        <ele>1174.4</ele>
        <time>2022-04-03T10:01:11Z</time>
      </trkpt>
      <trkpt lat="36.868504" lon="-3.795442">
        <ele>1173.9</ele>
        <time>2022-04-03T10:01:27Z</time>
      </trkpt>
      <trkpt lat="36.868472" lon="-3.795193">
        <ele>1176.3</ele>
        <time>2022-04-03T10:01:43Z</time>
      </trkpt>
      <trkpt lat="36.868433" lon="-3.794908">
        <ele>1177.8</ele>
        <time>2022-04-03T10:02:00Z</time>
      </trkpt>
      <trkpt lat="36.868362" lon="-3.794637">
        <ele>1178.2</ele>
        <time>2022-04-03T10:02:18Z</time>
      </trkpt>
      <trkpt lat="36.868318" lon="-3.794319">
        <ele>1179.2</ele>
        <time>2022-04-03T10:02:35Z</time>
      </trkpt>
      <trkpt lat="36.868220" lon="-3.794030">
        <ele>1179.2</ele>
        <time>2022-04-03T10:02:52Z</time>
      </trkpt>
      <trkpt lat="36.868161" lon="-3.793747">
        <ele>1182.6</ele>
        <time>2022-04-03T10:03:11Z</time>
      </trkpt>
      <trkpt lat="36.868228" lon="-3.793513">
        <ele>1183.5</ele>
        <time>2022-04-03T10:03:27Z</time>
      </trkpt>
      <trkpt lat="36.868381" lon="-3.793371">
        <ele>1184.5</ele>
        <time>2022-04-03T10:03:41Z</time>
      </trkpt>
      <trkpt lat="36.868488" lon="-3.793173">
        <ele>1184.0</ele>
        <time>2022-04-03T10:03:56Z</time>
      </trkpt>
      <trkpt lat="36.868458" lon="-3.792910">
        <ele>1182.6</ele>
        <time>2022-04-03T10:04:12Z</time>
      </trkpt>
      <trkpt lat="36.868359" lon="-3.792643">
        <ele>1180.2</ele>
        <time>2022-04-03T10:04:28Z</time>
      </trkpt>
      <trkpt lat="36.868425" lon="-3.792403">
        <ele>1177.8</ele>
        <time>2022-04-03T10:04:44Z</time>
      </trkpt>
      <trkpt lat="36.868363" lon="-3.792159">
        <ele>1176.8</ele>
        <time>2022-04-03T10:05:00Z</time>
      </trkpt>
      <trkpt lat="36.868269" lon="-3.791924">
        <ele>1172.9</ele>
        <time>2022-04-03T10:05:16Z</time>
      </trkpt>
      <trkpt lat="36.868069" lon="-3.791917">
        <ele>1172.0</ele>
        <time>2022-04-03T10:05:33Z</time>
      </trkpt>
      <trkpt lat="36.867823" lon="-3.791942">
        <ele>1171.5</ele>
        <time>2022-04-03T10:05:50Z</time>
      </trkpt>
      <trkpt lat="36.867713" lon="-3.791804">
        <ele>1172.0</ele>
        <time>2022-04-03T10:06:15Z</time>
      </trkpt>
      <trkpt lat="36.867660" lon="-3.791563">
        <ele>1169.1</ele>
        <time>2022-04-03T10:06:29Z</time>
      </trkpt>
      <trkpt lat="36.867609" lon="-3.791326">
        <ele>1169.1</ele>
        <time>2022-04-03T10:06:43Z</time>
      </trkpt>
      <trkpt lat="36.867578" lon="-3.791089">
        <ele>1169.1</ele>
        <time>2022-04-03T10:06:57Z</time>
      </trkpt>
      <trkpt lat="36.867640" lon="-3.790853">
        <ele>1169.6</ele>
        <time>2022-04-03T10:07:11Z</time>
      </trkpt>
      <trkpt lat="36.867704" lon="-3.790618">
        <ele>1168.6</ele>
        <time>2022-04-03T10:07:25Z</time>
      </trkpt>
      <trkpt lat="36.867713" lon="-3.790379">
        <ele>1168.1</ele>
        <time>2022-04-03T10:07:38Z</time>
      </trkpt>
      <trkpt lat="36.867707" lon="-3.790140">
        <ele>1166.7</ele>
        <time>2022-04-03T10:07:52Z</time>
      </trkpt>
      <trkpt lat="36.867736" lon="-3.789889">
        <ele>1162.9</ele>
        <time>2022-04-03T10:08:06Z</time>
      </trkpt>
      <trkpt lat="36.867842" lon="-3.789672">
        <ele>1161.4</ele>
        <time>2022-04-03T10:08:20Z</time>
      </trkpt>
      <trkpt lat="36.867939" lon="-3.789466">
        <ele>1160.0</ele>
        <time>2022-04-03T10:08:33Z</time>
      </trkpt>
      <trkpt lat="36.867953" lon="-3.789221">
        <ele>1160.0</ele>
        <time>2022-04-03T10:08:48Z</time>
      </trkpt>
      <trkpt lat="36.867932" lon="-3.788891">
        <ele>1160.9</ele>
        <time>2022-04-03T10:09:07Z</time>
      </trkpt>
      <trkpt lat="36.867919" lon="-3.788462">
        <ele>1156.6</ele>
        <time>2022-04-03T10:09:32Z</time>
      </trkpt>
      <trkpt lat="36.867930" lon="-3.788066">
        <ele>1153.7</ele>
        <time>2022-04-03T10:09:53Z</time>
      </trkpt>
      <trkpt lat="36.868030" lon="-3.787721">
        <ele>1154.2</ele>
        <time>2022-04-03T10:10:13Z</time>
      </trkpt>
      <trkpt lat="36.868081" lon="-3.787292">
        <ele>1153.2</ele>
        <time>2022-04-03T10:10:37Z</time>
      </trkpt>
      <trkpt lat="36.867902" lon="-3.786903">
        <ele>1153.2</ele>
        <time>2022-04-03T10:11:00Z</time>
      </trkpt>
      <trkpt lat="36.867808" lon="-3.786451">
        <ele>1153.2</ele>
        <time>2022-04-03T10:11:26Z</time>
      </trkpt>
      <trkpt lat="36.867564" lon="-3.785947">
        <ele>1150.8</ele>
        <time>2022-04-03T10:11:57Z</time>
      </trkpt>
      <trkpt lat="36.867546" lon="-3.785573">
        <ele>1148.4</ele>
        <time>2022-04-03T10:12:20Z</time>
      </trkpt>
      <trkpt lat="36.867450" lon="-3.785322">
        <ele>1147.5</ele>
        <time>2022-04-03T10:12:34Z</time>
      </trkpt>
      <trkpt lat="36.867358" lon="-3.785101">
        <ele>1148.4</ele>
        <time>2022-04-03T10:12:48Z</time>
      </trkpt>
      <trkpt lat="36.867376" lon="-3.784839">
        <ele>1148.0</ele>
        <time>2022-04-03T10:13:04Z</time>
      </trkpt>
      <trkpt lat="36.867387" lon="-3.784578">
        <ele>1147.5</ele>
        <time>2022-04-03T10:13:18Z</time>
      </trkpt>
      <trkpt lat="36.867215" lon="-3.784387">
        <ele>1147.0</ele>
        <time>2022-04-03T10:13:35Z</time>
      </trkpt>
      <trkpt lat="36.867168" lon="-3.784123">
        <ele>1147.5</ele>
        <time>2022-04-03T10:13:52Z</time>
      </trkpt>
      <trkpt lat="36.867180" lon="-3.783831">
        <ele>1146.0</ele>
        <time>2022-04-03T10:14:15Z</time>
      </trkpt>
      <trkpt lat="36.867145" lon="-3.783602">
        <ele>1146.5</ele>
        <time>2022-04-03T10:14:29Z</time>
      </trkpt>
      <trkpt lat="36.867078" lon="-3.783331">
        <ele>1146.0</ele>
        <time>2022-04-03T10:14:44Z</time>
      </trkpt>
      <trkpt lat="36.867102" lon="-3.783076">
        <ele>1146.5</ele>
        <time>2022-04-03T10:14:59Z</time>
      </trkpt>
      <trkpt lat="36.867101" lon="-3.782797">
        <ele>1146.5</ele>
        <time>2022-04-03T10:15:15Z</time>
      </trkpt>
      <trkpt lat="36.867036" lon="-3.782541">
        <ele>1145.1</ele>
        <time>2022-04-03T10:15:29Z</time>
      </trkpt>
      <trkpt lat="36.867007" lon="-3.782304">
        <ele>1142.7</ele>
        <time>2022-04-03T10:15:42Z</time>
      </trkpt>
      <trkpt lat="36.866948" lon="-3.782061">
        <ele>1142.7</ele>
        <time>2022-04-03T10:15:56Z</time>
      </trkpt>
      <trkpt lat="36.866933" lon="-3.781819">
        <ele>1142.7</ele>
        <time>2022-04-03T10:16:10Z</time>
      </trkpt>
      <trkpt lat="36.866884" lon="-3.781558">
        <ele>1143.1</ele>
        <time>2022-04-03T10:16:25Z</time>
      </trkpt>
      <trkpt lat="36.866935" lon="-3.781441">
        <ele>1142.7</ele>
        <time>2022-04-03T10:19:44Z</time>
      </trkpt>
      <trkpt lat="36.867007" lon="-3.781664">
        <ele>1145.5</ele>
        <time>2022-04-03T10:20:05Z</time>
      </trkpt>
      <trkpt lat="36.867166" lon="-3.781847">
        <ele>1148.0</ele>
        <time>2022-04-03T10:20:23Z</time>
      </trkpt>
      <trkpt lat="36.867341" lon="-3.781959">
        <ele>1149.9</ele>
        <time>2022-04-03T10:20:40Z</time>
      </trkpt>
      <trkpt lat="36.867541" lon="-3.781919">
        <ele>1146.5</ele>
        <time>2022-04-03T10:20:54Z</time>
      </trkpt>
      <trkpt lat="36.867717" lon="-3.781804">
        <ele>1146.0</ele>
        <time>2022-04-03T10:21:08Z</time>
      </trkpt>
      <trkpt lat="36.867877" lon="-3.781659">
        <ele>1145.5</ele>
        <time>2022-04-03T10:21:21Z</time>
      </trkpt>
      <trkpt lat="36.868040" lon="-3.781533">
        <ele>1145.5</ele>
        <time>2022-04-03T10:21:34Z</time>
      </trkpt>
      <trkpt lat="36.868212" lon="-3.781419">
        <ele>1144.6</ele>
        <time>2022-04-03T10:21:48Z</time>
      </trkpt>
      <trkpt lat="36.868404" lon="-3.781385">
        <ele>1143.1</ele>
        <time>2022-04-03T10:22:03Z</time>
      </trkpt>
      <trkpt lat="36.868606" lon="-3.781353">
        <ele>1143.1</ele>
        <time>2022-04-03T10:22:17Z</time>
      </trkpt>
      <trkpt lat="36.868805" lon="-3.781272">
        <ele>1143.6</ele>
        <time>2022-04-03T10:22:32Z</time>
      </trkpt>
      <trkpt lat="36.868998" lon="-3.781221">
        <ele>1144.1</ele>
        <time>2022-04-03T10:22:46Z</time>
      </trkpt>
      <trkpt lat="36.869211" lon="-3.781195">
        <ele>1145.5</ele>
        <time>2022-04-03T10:23:01Z</time>
      </trkpt>
      <trkpt lat="36.869398" lon="-3.781106">
        <ele>1143.6</ele>
        <time>2022-04-03T10:23:15Z</time>
      </trkpt>
      <trkpt lat="36.869591" lon="-3.781013">
        <ele>1143.1</ele>
        <time>2022-04-03T10:23:28Z</time>
      </trkpt>
      <trkpt lat="36.869728" lon="-3.780836">
        <ele>1143.6</ele>
        <time>2022-04-03T10:23:42Z</time>
      </trkpt>
      <trkpt lat="36.869888" lon="-3.780709">
        <ele>1144.1</ele>
        <time>2022-04-03T10:23:55Z</time>
      </trkpt>
      <trkpt lat="36.870070" lon="-3.780615">
        <ele>1144.1</ele>
        <time>2022-04-03T10:24:09Z</time>
      </trkpt>
      <trkpt lat="36.870174" lon="-3.780404">
        <ele>1144.6</ele>
        <time>2022-04-03T10:24:23Z</time>
      </trkpt>
      <trkpt lat="36.870352" lon="-3.780309">
        <ele>1139.8</ele>
        <time>2022-04-03T10:24:36Z</time>
      </trkpt>
      <trkpt lat="36.870543" lon="-3.780259">
        <ele>1136.9</ele>
        <time>2022-04-03T10:24:50Z</time>
      </trkpt>
      <trkpt lat="36.870742" lon="-3.780221">
        <ele>1132.6</ele>
        <time>2022-04-03T10:25:04Z</time>
      </trkpt>
      <trkpt lat="36.870901" lon="-3.780068">
        <ele>1131.6</ele>
        <time>2022-04-03T10:25:18Z</time>
      </trkpt>
      <trkpt lat="36.870991" lon="-3.779847">
        <ele>1132.1</ele>
        <time>2022-04-03T10:25:31Z</time>
      </trkpt>
      <trkpt lat="36.871114" lon="-3.779661">
        <ele>1131.1</ele>
        <time>2022-04-03T10:25:45Z</time>
      </trkpt>
      <trkpt lat="36.871306" lon="-3.779625">
        <ele>1129.2</ele>
        <time>2022-04-03T10:26:00Z</time>
      </trkpt>
      <trkpt lat="36.871512" lon="-3.779723">
        <ele>1126.8</ele>
        <time>2022-04-03T10:26:16Z</time>
      </trkpt>
      <trkpt lat="36.871728" lon="-3.779754">
        <ele>1127.3</ele>
        <time>2022-04-03T10:26:32Z</time>
      </trkpt>
      <trkpt lat="36.871891" lon="-3.779592">
        <ele>1126.3</ele>
        <time>2022-04-03T10:26:47Z</time>
      </trkpt>
      <trkpt lat="36.872040" lon="-3.779409">
        <ele>1124.9</ele>
        <time>2022-04-03T10:27:12Z</time>
      </trkpt>
      <trkpt lat="36.872216" lon="-3.779290">
        <ele>1123.4</ele>
        <time>2022-04-03T10:27:40Z</time>
      </trkpt>
      <trkpt lat="36.872360" lon="-3.779399">
        <ele>1124.4</ele>
        <time>2022-04-03T10:28:44Z</time>
      </trkpt>
      <trkpt lat="36.872528" lon="-3.779442">
        <ele>1125.8</ele>
        <time>2022-04-03T10:29:05Z</time>
      </trkpt>
      <trkpt lat="36.872728" lon="-3.779410">
        <ele>1126.3</ele>
        <time>2022-04-03T10:29:20Z</time>
      </trkpt>
      <trkpt lat="36.872922" lon="-3.779357">
        <ele>1125.8</ele>
        <time>2022-04-03T10:29:34Z</time>
      </trkpt>
      <trkpt lat="36.873098" lon="-3.779241">
        <ele>1126.8</ele>
        <time>2022-04-03T10:29:48Z</time>
      </trkpt>
      <trkpt lat="36.873292" lon="-3.779187">
        <ele>1125.4</ele>
        <time>2022-04-03T10:30:02Z</time>
      </trkpt>
      <trkpt lat="36.873520" lon="-3.779228">
        <ele>1123.4</ele>
        <time>2022-04-03T10:30:19Z</time>
      </trkpt>
      <trkpt lat="36.873719" lon="-3.779277">
        <ele>1122.5</ele>
        <time>2022-04-03T10:30:33Z</time>
      </trkpt>
      <trkpt lat="36.873930" lon="-3.779274">
        <ele>1122.5</ele>
        <time>2022-04-03T10:30:47Z</time>
      </trkpt>
      <trkpt lat="36.874120" lon="-3.779183">
        <ele>1123.0</ele>
        <time>2022-04-03T10:31:02Z</time>
      </trkpt>
      <trkpt lat="36.874314" lon="-3.779153">
        <ele>1123.4</ele>
        <time>2022-04-03T10:31:15Z</time>
      </trkpt>
      <trkpt lat="36.874465" lon="-3.778986">
        <ele>1123.0</ele>
        <time>2022-04-03T10:31:28Z</time>
      </trkpt>
      <trkpt lat="36.874609" lon="-3.778816">
        <ele>1124.4</ele>
        <time>2022-04-03T10:31:40Z</time>
      </trkpt>
      <trkpt lat="36.874790" lon="-3.778772">
        <ele>1124.4</ele>
        <time>2022-04-03T10:31:54Z</time>
      </trkpt>
      <trkpt lat="36.874968" lon="-3.778698">
        <ele>1123.0</ele>
        <time>2022-04-03T10:32:07Z</time>
      </trkpt>
      <trkpt lat="36.875130" lon="-3.778572">
        <ele>1121.5</ele>
        <time>2022-04-03T10:32:20Z</time>
      </trkpt>
      <trkpt lat="36.875283" lon="-3.778390">
        <ele>1121.5</ele>
        <time>2022-04-03T10:32:34Z</time>
      </trkpt>
      <trkpt lat="36.875435" lon="-3.778203">
        <ele>1122.0</ele>
        <time>2022-04-03T10:32:48Z</time>
      </trkpt>
      <trkpt lat="36.875608" lon="-3.778051">
        <ele>1120.6</ele>
        <time>2022-04-03T10:33:02Z</time>
      </trkpt>
      <trkpt lat="36.875787" lon="-3.777936">
        <ele>1119.6</ele>
        <time>2022-04-03T10:33:17Z</time>
      </trkpt>
      <trkpt lat="36.876037" lon="-3.777925">
        <ele>1117.2</ele>
        <time>2022-04-03T10:33:34Z</time>
      </trkpt>
      <trkpt lat="36.876270" lon="-3.777700">
        <ele>1115.3</ele>
        <time>2022-04-03T10:33:51Z</time>
      </trkpt>
      <trkpt lat="36.876480" lon="-3.777625">
        <ele>1115.7</ele>
        <time>2022-04-03T10:34:07Z</time>
      </trkpt>
      <trkpt lat="36.876705" lon="-3.777582">
        <ele>1117.7</ele>
        <time>2022-04-03T10:34:24Z</time>
      </trkpt>
      <trkpt lat="36.876910" lon="-3.777441">
        <ele>1120.1</ele>
        <time>2022-04-03T10:34:42Z</time>
      </trkpt>
      <trkpt lat="36.877113" lon="-3.777392">
        <ele>1122.0</ele>
        <time>2022-04-03T10:34:58Z</time>
      </trkpt>
      <trkpt lat="36.877342" lon="-3.777331">
        <ele>1123.9</ele>
        <time>2022-04-03T10:35:15Z</time>
      </trkpt>
      <trkpt lat="36.877522" lon="-3.777224">
        <ele>1125.8</ele>
        <time>2022-04-03T10:35:32Z</time>
      </trkpt>
      <trkpt lat="36.877690" lon="-3.777127">
        <ele>1127.8</ele>
        <time>2022-04-03T10:35:49Z</time>
      </trkpt>
      <trkpt lat="36.877863" lon="-3.777072">
        <ele>1133.5</ele>
        <time>2022-04-03T10:36:05Z</time>
      </trkpt>
      <trkpt lat="36.878053" lon="-3.777109">
        <ele>1131.1</ele>
        <time>2022-04-03T10:36:22Z</time>
      </trkpt>
      <trkpt lat="36.878252" lon="-3.777119">
        <ele>1136.4</ele>
        <time>2022-04-03T10:36:42Z</time>
      </trkpt>
      <trkpt lat="36.878453" lon="-3.777236">
        <ele>1139.3</ele>
        <time>2022-04-03T10:37:02Z</time>
      </trkpt>
      <trkpt lat="36.878661" lon="-3.777226">
        <ele>1141.2</ele>
        <time>2022-04-03T10:37:21Z</time>
      </trkpt>
      <trkpt lat="36.878852" lon="-3.777138">
        <ele>1143.1</ele>
        <time>2022-04-03T10:37:36Z</time>
      </trkpt>
      <trkpt lat="36.879037" lon="-3.776993">
        <ele>1145.1</ele>
        <time>2022-04-03T10:37:56Z</time>
      </trkpt>
      <trkpt lat="36.879275" lon="-3.776911">
        <ele>1147.0</ele>
        <time>2022-04-03T10:38:13Z</time>
      </trkpt>
      <trkpt lat="36.879457" lon="-3.776819">
        <ele>1148.9</ele>
        <time>2022-04-03T10:38:30Z</time>
      </trkpt>
      <trkpt lat="36.879676" lon="-3.776749">
        <ele>1149.9</ele>
        <time>2022-04-03T10:38:46Z</time>
      </trkpt>
      <trkpt lat="36.879851" lon="-3.776644">
        <ele>1151.3</ele>
        <time>2022-04-03T10:39:01Z</time>
      </trkpt>
      <trkpt lat="36.880029" lon="-3.776594">
        <ele>1153.2</ele>
        <time>2022-04-03T10:39:16Z</time>
      </trkpt>
      <trkpt lat="36.880193" lon="-3.776732">
        <ele>1155.2</ele>
        <time>2022-04-03T10:39:31Z</time>
      </trkpt>
      <trkpt lat="36.880406" lon="-3.776774">
        <ele>1157.6</ele>
        <time>2022-04-03T10:39:47Z</time>
      </trkpt>
      <trkpt lat="36.880591" lon="-3.776905">
        <ele>1159.5</ele>
        <time>2022-04-03T10:40:03Z</time>
      </trkpt>
      <trkpt lat="36.880761" lon="-3.777033">
        <ele>1160.4</ele>
        <time>2022-04-03T10:40:17Z</time>
      </trkpt>
      <trkpt lat="36.880937" lon="-3.777118">
        <ele>1162.4</ele>
        <time>2022-04-03T10:40:32Z</time>
      </trkpt>
      <trkpt lat="36.881136" lon="-3.777229">
        <ele>1163.8</ele>
        <time>2022-04-03T10:40:47Z</time>
      </trkpt>
      <trkpt lat="36.881323" lon="-3.777323">
        <ele>1164.8</ele>
        <time>2022-04-03T10:41:01Z</time>
      </trkpt>
      <trkpt lat="36.881519" lon="-3.777264">
        <ele>1164.8</ele>
        <time>2022-04-03T10:41:15Z</time>
      </trkpt>
      <trkpt lat="36.881690" lon="-3.777129">
        <ele>1165.7</ele>
        <time>2022-04-03T10:41:43Z</time>
      </trkpt>
      <trkpt lat="36.881797" lon="-3.776928">
        <ele>1168.1</ele>
        <time>2022-04-03T10:42:04Z</time>
      </trkpt>
      <trkpt lat="36.881887" lon="-3.776684">
        <ele>1168.1</ele>
        <time>2022-04-03T10:42:21Z</time>
      </trkpt>
      <trkpt lat="36.882083" lon="-3.776607">
        <ele>1171.0</ele>
        <time>2022-04-03T10:43:08Z</time>
      </trkpt>
      <trkpt lat="36.882282" lon="-3.776717">
        <ele>1172.0</ele>
        <time>2022-04-03T10:43:23Z</time>
      </trkpt>
      <trkpt lat="36.882470" lon="-3.776639">
        <ele>1173.9</ele>
        <time>2022-04-03T10:43:51Z</time>
      </trkpt>
      <trkpt lat="36.882611" lon="-3.776458">
        <ele>1176.3</ele>
        <time>2022-04-03T10:44:09Z</time>
      </trkpt>
      <trkpt lat="36.882765" lon="-3.776265">
        <ele>1179.2</ele>
        <time>2022-04-03T10:44:28Z</time>
      </trkpt>
      <trkpt lat="36.882898" lon="-3.776053">
        <ele>1182.1</ele>
        <time>2022-04-03T10:45:01Z</time>
      </trkpt>
      <trkpt lat="36.883043" lon="-3.775876">
        <ele>1186.9</ele>
        <time>2022-04-03T10:45:18Z</time>
      </trkpt>
      <trkpt lat="36.883189" lon="-3.775753">
        <ele>1185.4</ele>
        <time>2022-04-03T10:46:57Z</time>
      </trkpt>
      <trkpt lat="36.883266" lon="-3.775519">
        <ele>1191.2</ele>
        <time>2022-04-03T10:47:16Z</time>
      </trkpt>
      <trkpt lat="36.883195" lon="-3.775271">
        <ele>1193.1</ele>
        <time>2022-04-03T10:47:39Z</time>
      </trkpt>
      <trkpt lat="36.883058" lon="-3.775060">
        <ele>1194.6</ele>
        <time>2022-04-03T10:47:58Z</time>
      </trkpt>
      <trkpt lat="36.883010" lon="-3.774723">
        <ele>1197.9</ele>
        <time>2022-04-03T10:48:22Z</time>
      </trkpt>
      <trkpt lat="36.882992" lon="-3.774400">
        <ele>1202.7</ele>
        <time>2022-04-03T10:48:42Z</time>
      </trkpt>
      <trkpt lat="36.882920" lon="-3.774104">
        <ele>1204.2</ele>
        <time>2022-04-03T10:49:10Z</time>
      </trkpt>
      <trkpt lat="36.882801" lon="-3.773913">
        <ele>1205.6</ele>
        <time>2022-04-03T10:49:28Z</time>
      </trkpt>
      <trkpt lat="36.882686" lon="-3.773677">
        <ele>1209.0</ele>
        <time>2022-04-03T10:49:45Z</time>
      </trkpt>
      <trkpt lat="36.882661" lon="-3.773420">
        <ele>1212.4</ele>
        <time>2022-04-03T10:50:02Z</time>
      </trkpt>
      <trkpt lat="36.882765" lon="-3.773191">
        <ele>1212.8</ele>
        <time>2022-04-03T10:50:17Z</time>
      </trkpt>
      <trkpt lat="36.882736" lon="-3.772991">
        <ele>1212.8</ele>
        <time>2022-04-03T10:54:02Z</time>
      </trkpt>
      <trkpt lat="36.882771" lon="-3.772918">
        <ele>1213.3</ele>
        <time>2022-04-03T11:08:10Z</time>
      </trkpt>
      <trkpt lat="36.882722" lon="-3.772937">
        <ele>1216.7</ele>
        <time>2022-04-03T11:12:59Z</time>
      </trkpt>
      <trkpt lat="36.882593" lon="-3.772774">
        <ele>1218.1</ele>
        <time>2022-04-03T11:13:28Z</time>
      </trkpt>
      <trkpt lat="36.882431" lon="-3.772556">
        <ele>1222.5</ele>
        <time>2022-04-03T11:13:48Z</time>
      </trkpt>
      <trkpt lat="36.882284" lon="-3.772306">
        <ele>1223.9</ele>
        <time>2022-04-03T11:14:06Z</time>
      </trkpt>
      <trkpt lat="36.882068" lon="-3.772137">
        <ele>1225.3</ele>
        <time>2022-04-03T11:14:24Z</time>
      </trkpt>
      <trkpt lat="36.881870" lon="-3.771994">
        <ele>1231.1</ele>
        <time>2022-04-03T11:14:51Z</time>
      </trkpt>
      <trkpt lat="36.881654" lon="-3.772000">
        <ele>1233.0</ele>
        <time>2022-04-03T11:15:11Z</time>
      </trkpt>
      <trkpt lat="36.881387" lon="-3.772049">
        <ele>1235.9</ele>
        <time>2022-04-03T11:15:31Z</time>
      </trkpt>
      <trkpt lat="36.881263" lon="-3.771801">
        <ele>1238.8</ele>
        <time>2022-04-03T11:15:58Z</time>
      </trkpt>
      <trkpt lat="36.881367" lon="-3.771537">
        <ele>1241.2</ele>
        <time>2022-04-03T11:16:17Z</time>
      </trkpt>
      <trkpt lat="36.881185" lon="-3.771260">
        <ele>1243.6</ele>
        <time>2022-04-03T11:16:40Z</time>
      </trkpt>
      <trkpt lat="36.880903" lon="-3.771115">
        <ele>1247.9</ele>
        <time>2022-04-03T11:17:05Z</time>
      </trkpt>
      <trkpt lat="36.880593" lon="-3.770929">
        <ele>1250.8</ele>
        <time>2022-04-03T11:17:34Z</time>
      </trkpt>
      <trkpt lat="36.880347" lon="-3.770699">
        <ele>1255.1</ele>
        <time>2022-04-03T11:17:59Z</time>
      </trkpt>
      <trkpt lat="36.880147" lon="-3.770311">
        <ele>1258.5</ele>
        <time>2022-04-03T11:18:25Z</time>
      </trkpt>
      <trkpt lat="36.880077" lon="-3.769919">
        <ele>1259.9</ele>
        <time>2022-04-03T11:18:54Z</time>
      </trkpt>
      <trkpt lat="36.880456" lon="-3.769568">
        <ele>1265.2</ele>
        <time>2022-04-03T11:19:42Z</time>
      </trkpt>
      <trkpt lat="36.880627" lon="-3.769639">
        <ele>1264.8</ele>
        <time>2022-04-03T11:19:58Z</time>
      </trkpt>
      <trkpt lat="36.880936" lon="-3.769713">
        <ele>1265.7</ele>
        <time>2022-04-03T11:20:18Z</time>
      </trkpt>
      <trkpt lat="36.881154" lon="-3.769712">
        <ele>1265.7</ele>
        <time>2022-04-03T11:20:36Z</time>
      </trkpt>
      <trkpt lat="36.881234" lon="-3.769448">
        <ele>1268.1</ele>
        <time>2022-04-03T11:20:55Z</time>
      </trkpt>
      <trkpt lat="36.881307" lon="-3.769120">
        <ele>1272.0</ele>
        <time>2022-04-03T11:21:19Z</time>
      </trkpt>
      <trkpt lat="36.881572" lon="-3.768905">
        <ele>1272.9</ele>
        <time>2022-04-03T11:21:42Z</time>
      </trkpt>
      <trkpt lat="36.881791" lon="-3.768609">
        <ele>1278.2</ele>
        <time>2022-04-03T11:22:06Z</time>
      </trkpt>
      <trkpt lat="36.881858" lon="-3.768367">
        <ele>1281.1</ele>
        <time>2022-04-03T11:22:38Z</time>
      </trkpt>
      <trkpt lat="36.882000" lon="-3.768078">
        <ele>1281.1</ele>
        <time>2022-04-03T11:23:03Z</time>
      </trkpt>
      <trkpt lat="36.882221" lon="-3.767852">
        <ele>1282.5</ele>
        <time>2022-04-03T11:23:23Z</time>
      </trkpt>
      <trkpt lat="36.882342" lon="-3.767663">
        <ele>1284.9</ele>
        <time>2022-04-03T11:23:42Z</time>
      </trkpt>
      <trkpt lat="36.882495" lon="-3.767536">
        <ele>1289.7</ele>
        <time>2022-04-03T11:23:57Z</time>
      </trkpt>
      <trkpt lat="36.882694" lon="-3.767551">
        <ele>1291.7</ele>
        <time>2022-04-03T11:24:14Z</time>
      </trkpt>
      <trkpt lat="36.882862" lon="-3.767704">
        <ele>1294.1</ele>
        <time>2022-04-03T11:24:43Z</time>
      </trkpt>
      <trkpt lat="36.883115" lon="-3.767824">
        <ele>1297.0</ele>
        <time>2022-04-03T11:25:08Z</time>
      </trkpt>
      <trkpt lat="36.883431" lon="-3.767805">
        <ele>1299.4</ele>
        <time>2022-04-03T11:25:30Z</time>
      </trkpt>
      <trkpt lat="36.883629" lon="-3.767929">
        <ele>1301.8</ele>
        <time>2022-04-03T11:25:48Z</time>
      </trkpt>
      <trkpt lat="36.883790" lon="-3.768074">
        <ele>1303.7</ele>
        <time>2022-04-03T11:26:05Z</time>
      </trkpt>
      <trkpt lat="36.884005" lon="-3.768041">
        <ele>1301.8</ele>
        <time>2022-04-03T11:26:21Z</time>
      </trkpt>
      <trkpt lat="36.884220" lon="-3.767985">
        <ele>1300.8</ele>
        <time>2022-04-03T11:26:35Z</time>
      </trkpt>
      <trkpt lat="36.884418" lon="-3.767966">
        <ele>1299.4</ele>
        <time>2022-04-03T11:26:50Z</time>
      </trkpt>
      <trkpt lat="36.884615" lon="-3.768039">
        <ele>1299.4</ele>
        <time>2022-04-03T11:27:04Z</time>
      </trkpt>
      <trkpt lat="36.884792" lon="-3.768134">
        <ele>1298.4</ele>
        <time>2022-04-03T11:27:25Z</time>
      </trkpt>
      <trkpt lat="36.885010" lon="-3.768170">
        <ele>1298.4</ele>
        <time>2022-04-03T11:27:40Z</time>
      </trkpt>
      <trkpt lat="36.885226" lon="-3.768126">
        <ele>1297.9</ele>
        <time>2022-04-03T11:27:55Z</time>
      </trkpt>
      <trkpt lat="36.885255" lon="-3.767903">
        <ele>1297.4</ele>
        <time>2022-04-03T11:28:11Z</time>
      </trkpt>
      <trkpt lat="36.885229" lon="-3.767621">
        <ele>1297.4</ele>
        <time>2022-04-03T11:28:27Z</time>
      </trkpt>
      <trkpt lat="36.885255" lon="-3.767348">
        <ele>1297.0</ele>
        <time>2022-04-03T11:28:43Z</time>
      </trkpt>
      <trkpt lat="36.885210" lon="-3.767090">
        <ele>1296.5</ele>
        <time>2022-04-03T11:28:57Z</time>
      </trkpt>
      <trkpt lat="36.885186" lon="-3.766721">
        <ele>1296.0</ele>
        <time>2022-04-03T11:29:14Z</time>
      </trkpt>
      <trkpt lat="36.885209" lon="-3.766447">
        <ele>1295.5</ele>
        <time>2022-04-03T11:29:32Z</time>
      </trkpt>
      <trkpt lat="36.885160" lon="-3.766114">
        <ele>1295.5</ele>
        <time>2022-04-03T11:29:48Z</time>
      </trkpt>
      <trkpt lat="36.885266" lon="-3.765836">
        <ele>1295.0</ele>
        <time>2022-04-03T11:30:04Z</time>
      </trkpt>
      <trkpt lat="36.885310" lon="-3.765602">
        <ele>1294.1</ele>
        <time>2022-04-03T11:30:19Z</time>
      </trkpt>
      <trkpt lat="36.885303" lon="-3.765290">
        <ele>1293.6</ele>
        <time>2022-04-03T11:30:35Z</time>
      </trkpt>
      <trkpt lat="36.885286" lon="-3.765026">
        <ele>1292.6</ele>
        <time>2022-04-03T11:30:49Z</time>
      </trkpt>
      <trkpt lat="36.885284" lon="-3.764790">
        <ele>1292.1</ele>
        <time>2022-04-03T11:31:01Z</time>
      </trkpt>
      <trkpt lat="36.885223" lon="-3.764578">
        <ele>1290.7</ele>
        <time>2022-04-03T11:31:13Z</time>
      </trkpt>
      <trkpt lat="36.885081" lon="-3.764445">
        <ele>1289.3</ele>
        <time>2022-04-03T11:31:25Z</time>
      </trkpt>
      <trkpt lat="36.884942" lon="-3.764294">
        <ele>1287.8</ele>
        <time>2022-04-03T11:31:37Z</time>
      </trkpt>
      <trkpt lat="36.884804" lon="-3.764127">
        <ele>1287.3</ele>
        <time>2022-04-03T11:31:50Z</time>
      </trkpt>
      <trkpt lat="36.884677" lon="-3.763962">
        <ele>1286.9</ele>
        <time>2022-04-03T11:32:03Z</time>
      </trkpt>
      <trkpt lat="36.884549" lon="-3.763758">
        <ele>1287.8</ele>
        <time>2022-04-03T11:32:18Z</time>
      </trkpt>
      <trkpt lat="36.884420" lon="-3.763592">
        <ele>1287.8</ele>
        <time>2022-04-03T11:32:31Z</time>
      </trkpt>
      <trkpt lat="36.884274" lon="-3.763429">
        <ele>1289.7</ele>
        <time>2022-04-03T11:32:44Z</time>
      </trkpt>
      <trkpt lat="36.884108" lon="-3.763278">
        <ele>1291.7</ele>
        <time>2022-04-03T11:32:57Z</time>
      </trkpt>
      <trkpt lat="36.883950" lon="-3.763163">
        <ele>1293.6</ele>
        <time>2022-04-03T11:33:10Z</time>
      </trkpt>
      <trkpt lat="36.883767" lon="-3.763088">
        <ele>1290.7</ele>
        <time>2022-04-03T11:33:24Z</time>
      </trkpt>
      <trkpt lat="36.883589" lon="-3.763035">
        <ele>1294.1</ele>
        <time>2022-04-03T11:33:37Z</time>
      </trkpt>
      <trkpt lat="36.883423" lon="-3.762939">
        <ele>1293.6</ele>
        <time>2022-04-03T11:33:50Z</time>
      </trkpt>
      <trkpt lat="36.883282" lon="-3.762774">
        <ele>1295.5</ele>
        <time>2022-04-03T11:34:04Z</time>
      </trkpt>
      <trkpt lat="36.883160" lon="-3.762604">
        <ele>1294.1</ele>
        <time>2022-04-03T11:34:19Z</time>
      </trkpt>
      <trkpt lat="36.883007" lon="-3.762416">
        <ele>1295.0</ele>
        <time>2022-04-03T11:34:33Z</time>
      </trkpt>
      <trkpt lat="36.882873" lon="-3.762228">
        <ele>1296.0</ele>
        <time>2022-04-03T11:34:47Z</time>
      </trkpt>
      <trkpt lat="36.882778" lon="-3.762001">
        <ele>1296.5</ele>
        <time>2022-04-03T11:35:03Z</time>
      </trkpt>
      <trkpt lat="36.882687" lon="-3.761792">
        <ele>1297.0</ele>
        <time>2022-04-03T11:35:17Z</time>
      </trkpt>
      <trkpt lat="36.882610" lon="-3.761546">
        <ele>1297.4</ele>
        <time>2022-04-03T11:35:32Z</time>
      </trkpt>
      <trkpt lat="36.882546" lon="-3.761308">
        <ele>1299.4</ele>
        <time>2022-04-03T11:35:47Z</time>
      </trkpt>
      <trkpt lat="36.882493" lon="-3.761083">
        <ele>1301.3</ele>
        <time>2022-04-03T11:36:01Z</time>
      </trkpt>
      <trkpt lat="36.882414" lon="-3.760874">
        <ele>1301.3</ele>
        <time>2022-04-03T11:36:15Z</time>
      </trkpt>
      <trkpt lat="36.882268" lon="-3.760664">
        <ele>1300.8</ele>
        <time>2022-04-03T11:36:28Z</time>
      </trkpt>
      <trkpt lat="36.882200" lon="-3.760425">
        <ele>1301.8</ele>
        <time>2022-04-03T11:36:44Z</time>
      </trkpt>
      <trkpt lat="36.882151" lon="-3.760154">
        <ele>1300.8</ele>
        <time>2022-04-03T11:36:58Z</time>
      </trkpt>
      <trkpt lat="36.882059" lon="-3.759899">
        <ele>1301.3</ele>
        <time>2022-04-03T11:37:11Z</time>
      </trkpt>
      <trkpt lat="36.881984" lon="-3.759653">
        <ele>1302.2</ele>
        <time>2022-04-03T11:37:27Z</time>
      </trkpt>
      <trkpt lat="36.881925" lon="-3.759426">
        <ele>1301.3</ele>
        <time>2022-04-03T11:37:40Z</time>
      </trkpt>
      <trkpt lat="36.881858" lon="-3.759166">
        <ele>1301.8</ele>
        <time>2022-04-03T11:37:54Z</time>
      </trkpt>
      <trkpt lat="36.881819" lon="-3.758921">
        <ele>1302.7</ele>
        <time>2022-04-03T11:38:08Z</time>
      </trkpt>
      <trkpt lat="36.881748" lon="-3.758679">
        <ele>1301.8</ele>
        <time>2022-04-03T11:38:21Z</time>
      </trkpt>
      <trkpt lat="36.881682" lon="-3.758453">
        <ele>1301.8</ele>
        <time>2022-04-03T11:38:35Z</time>
      </trkpt>
      <trkpt lat="36.881607" lon="-3.758180">
        <ele>1301.3</ele>
        <time>2022-04-03T11:38:49Z</time>
      </trkpt>
      <trkpt lat="36.881635" lon="-3.757943">
        <ele>1301.8</ele>
        <time>2022-04-03T11:39:03Z</time>
      </trkpt>
      <trkpt lat="36.881653" lon="-3.757708">
        <ele>1301.3</ele>
        <time>2022-04-03T11:39:16Z</time>
      </trkpt>
      <trkpt lat="36.881724" lon="-3.757501">
        <ele>1301.3</ele>
        <time>2022-04-03T11:39:29Z</time>
      </trkpt>
      <trkpt lat="36.881809" lon="-3.757299">
        <ele>1301.8</ele>
        <time>2022-04-03T11:39:42Z</time>
      </trkpt>
      <trkpt lat="36.881857" lon="-3.757080">
        <ele>1301.8</ele>
        <time>2022-04-03T11:39:55Z</time>
      </trkpt>
      <trkpt lat="36.881882" lon="-3.756845">
        <ele>1301.8</ele>
        <time>2022-04-03T11:40:08Z</time>
      </trkpt>
      <trkpt lat="36.881867" lon="-3.756610">
        <ele>1301.8</ele>
        <time>2022-04-03T11:40:21Z</time>
      </trkpt>
      <trkpt lat="36.881843" lon="-3.756373">
        <ele>1302.2</ele>
        <time>2022-04-03T11:40:34Z</time>
      </trkpt>
      <trkpt lat="36.881853" lon="-3.756131">
        <ele>1301.8</ele>
        <time>2022-04-03T11:40:47Z</time>
      </trkpt>
      <trkpt lat="36.881870" lon="-3.755899">
        <ele>1301.3</ele>
        <time>2022-04-03T11:41:00Z</time>
      </trkpt>
      <trkpt lat="36.881897" lon="-3.755663">
        <ele>1301.8</ele>
        <time>2022-04-03T11:41:14Z</time>
      </trkpt>
      <trkpt lat="36.882034" lon="-3.755476">
        <ele>1302.7</ele>
        <time>2022-04-03T11:41:28Z</time>
      </trkpt>
      <trkpt lat="36.882228" lon="-3.755374">
        <ele>1299.8</ele>
        <time>2022-04-03T11:41:42Z</time>
      </trkpt>
      <trkpt lat="36.882333" lon="-3.755162">
        <ele>1298.4</ele>
        <time>2022-04-03T11:41:56Z</time>
      </trkpt>
      <trkpt lat="36.882298" lon="-3.754911">
        <ele>1296.5</ele>
        <time>2022-04-03T11:42:09Z</time>
      </trkpt>
      <trkpt lat="36.882223" lon="-3.754678">
        <ele>1295.0</ele>
        <time>2022-04-03T11:42:22Z</time>
      </trkpt>
      <trkpt lat="36.882172" lon="-3.754437">
        <ele>1292.1</ele>
        <time>2022-04-03T11:42:36Z</time>
      </trkpt>
      <trkpt lat="36.882111" lon="-3.754208">
        <ele>1291.7</ele>
        <time>2022-04-03T11:42:50Z</time>
      </trkpt>
      <trkpt lat="36.882040" lon="-3.753986">
        <ele>1291.7</ele>
        <time>2022-04-03T11:43:03Z</time>
      </trkpt>
      <trkpt lat="36.881964" lon="-3.753762">
        <ele>1290.7</ele>
        <time>2022-04-03T11:43:16Z</time>
      </trkpt>
      <trkpt lat="36.881913" lon="-3.753543">
        <ele>1290.7</ele>
        <time>2022-04-03T11:43:29Z</time>
      </trkpt>
      <trkpt lat="36.881843" lon="-3.753314">
        <ele>1289.3</ele>
        <time>2022-04-03T11:43:43Z</time>
      </trkpt>
      <trkpt lat="36.881773" lon="-3.753092">
        <ele>1288.3</ele>
        <time>2022-04-03T11:43:56Z</time>
      </trkpt>
      <trkpt lat="36.881701" lon="-3.752872">
        <ele>1287.8</ele>
        <time>2022-04-03T11:44:09Z</time>
      </trkpt>
      <trkpt lat="36.881619" lon="-3.752648">
        <ele>1286.4</ele>
        <time>2022-04-03T11:44:22Z</time>
      </trkpt>
      <trkpt lat="36.881540" lon="-3.752433">
        <ele>1285.9</ele>
        <time>2022-04-03T11:44:35Z</time>
      </trkpt>
      <trkpt lat="36.881424" lon="-3.752233">
        <ele>1285.4</ele>
        <time>2022-04-03T11:44:48Z</time>
      </trkpt>
      <trkpt lat="36.881293" lon="-3.752031">
        <ele>1285.9</ele>
        <time>2022-04-03T11:45:03Z</time>
      </trkpt>
      <trkpt lat="36.881170" lon="-3.751846">
        <ele>1284.5</ele>
        <time>2022-04-03T11:45:17Z</time>
      </trkpt>
      <trkpt lat="36.881096" lon="-3.751618">
        <ele>1284.9</ele>
        <time>2022-04-03T11:45:31Z</time>
      </trkpt>
      <trkpt lat="36.881059" lon="-3.751368">
        <ele>1283.5</ele>
        <time>2022-04-03T11:45:46Z</time>
      </trkpt>
      <trkpt lat="36.881031" lon="-3.751098">
        <ele>1280.1</ele>
        <time>2022-04-03T11:46:03Z</time>
      </trkpt>
      <trkpt lat="36.880950" lon="-3.750830">
        <ele>1278.7</ele>
        <time>2022-04-03T11:46:18Z</time>
      </trkpt>
      <trkpt lat="36.880876" lon="-3.750599">
        <ele>1278.7</ele>
        <time>2022-04-03T11:46:32Z</time>
      </trkpt>
      <trkpt lat="36.880823" lon="-3.750361">
        <ele>1277.7</ele>
        <time>2022-04-03T11:46:46Z</time>
      </trkpt>
      <trkpt lat="36.880744" lon="-3.750089">
        <ele>1277.7</ele>
        <time>2022-04-03T11:47:01Z</time>
      </trkpt>
      <trkpt lat="36.880580" lon="-3.749776">
        <ele>1274.8</ele>
        <time>2022-04-03T11:47:21Z</time>
      </trkpt>
      <trkpt lat="36.880435" lon="-3.749523">
        <ele>1272.4</ele>
        <time>2022-04-03T11:47:39Z</time>
      </trkpt>
      <trkpt lat="36.880272" lon="-3.749259">
        <ele>1269.6</ele>
        <time>2022-04-03T11:48:02Z</time>
      </trkpt>
      <trkpt lat="36.880115" lon="-3.748981">
        <ele>1268.1</ele>
        <time>2022-04-03T11:48:18Z</time>
      </trkpt>
      <trkpt lat="36.879973" lon="-3.748756">
        <ele>1268.1</ele>
        <time>2022-04-03T11:48:33Z</time>
      </trkpt>
      <trkpt lat="36.879831" lon="-3.748521">
        <ele>1265.2</ele>
        <time>2022-04-03T11:48:49Z</time>
      </trkpt>
      <trkpt lat="36.879718" lon="-3.748280">
        <ele>1264.8</ele>
        <time>2022-04-03T11:49:05Z</time>
      </trkpt>
      <trkpt lat="36.879567" lon="-3.748081">
        <ele>1262.3</ele>
        <time>2022-04-03T11:49:19Z</time>
      </trkpt>
      <trkpt lat="36.879358" lon="-3.748043">
        <ele>1260.9</ele>
        <time>2022-04-03T11:49:33Z</time>
      </trkpt>
      <trkpt lat="36.879171" lon="-3.748007">
        <ele>1259.0</ele>
        <time>2022-04-03T11:49:45Z</time>
      </trkpt>
      <trkpt lat="36.878981" lon="-3.747960">
        <ele>1257.1</ele>
        <time>2022-04-03T11:49:58Z</time>
      </trkpt>
      <trkpt lat="36.878804" lon="-3.747822">
        <ele>1255.1</ele>
        <time>2022-04-03T11:50:12Z</time>
      </trkpt>
      <trkpt lat="36.878743" lon="-3.747585">
        <ele>1254.2</ele>
        <time>2022-04-03T11:50:25Z</time>
      </trkpt>
      <trkpt lat="36.878734" lon="-3.747334">
        <ele>1251.3</ele>
        <time>2022-04-03T11:50:38Z</time>
      </trkpt>
      <trkpt lat="36.878730" lon="-3.747096">
        <ele>1250.3</ele>
        <time>2022-04-03T11:50:51Z</time>
      </trkpt>
      <trkpt lat="36.878707" lon="-3.746864">
        <ele>1248.4</ele>
        <time>2022-04-03T11:51:04Z</time>
      </trkpt>
      <trkpt lat="36.878710" lon="-3.746603">
        <ele>1245.0</ele>
        <time>2022-04-03T11:51:18Z</time>
      </trkpt>
      <trkpt lat="36.878769" lon="-3.746367">
        <ele>1242.6</ele>
        <time>2022-04-03T11:51:32Z</time>
      </trkpt>
      <trkpt lat="36.878818" lon="-3.746129">
        <ele>1240.7</ele>
        <time>2022-04-03T11:51:46Z</time>
      </trkpt>
      <trkpt lat="36.878761" lon="-3.745875">
        <ele>1238.8</ele>
        <time>2022-04-03T11:52:16Z</time>
      </trkpt>
      <trkpt lat="36.878765" lon="-3.745628">
        <ele>1236.4</ele>
        <time>2022-04-03T11:52:30Z</time>
      </trkpt>
      <trkpt lat="36.878744" lon="-3.745386">
        <ele>1234.0</ele>
        <time>2022-04-03T11:52:44Z</time>
      </trkpt>
      <trkpt lat="36.878709" lon="-3.745130">
        <ele>1232.1</ele>
        <time>2022-04-03T11:52:58Z</time>
      </trkpt>
      <trkpt lat="36.878662" lon="-3.744889">
        <ele>1230.1</ele>
        <time>2022-04-03T11:53:11Z</time>
      </trkpt>
      <trkpt lat="36.878651" lon="-3.744648">
        <ele>1229.2</ele>
        <time>2022-04-03T11:53:24Z</time>
      </trkpt>
      <trkpt lat="36.878610" lon="-3.744386">
        <ele>1229.2</ele>
        <time>2022-04-03T11:53:38Z</time>
      </trkpt>
      <trkpt lat="36.878600" lon="-3.744146">
        <ele>1230.6</ele>
        <time>2022-04-03T11:53:51Z</time>
      </trkpt>
      <trkpt lat="36.878615" lon="-3.743915">
        <ele>1231.1</ele>
        <time>2022-04-03T11:54:04Z</time>
      </trkpt>
      <trkpt lat="36.878646" lon="-3.743691">
        <ele>1234.0</ele>
        <time>2022-04-03T11:54:19Z</time>
      </trkpt>
      <trkpt lat="36.878655" lon="-3.743454">
        <ele>1236.4</ele>
        <time>2022-04-03T11:54:35Z</time>
      </trkpt>
      <trkpt lat="36.878583" lon="-3.743235">
        <ele>1236.9</ele>
        <time>2022-04-03T11:54:50Z</time>
      </trkpt>
      <trkpt lat="36.878471" lon="-3.743038">
        <ele>1235.9</ele>
        <time>2022-04-03T11:55:04Z</time>
      </trkpt>
      <trkpt lat="36.878333" lon="-3.742848">
        <ele>1237.8</ele>
        <time>2022-04-03T11:55:19Z</time>
      </trkpt>
      <trkpt lat="36.878152" lon="-3.742749">
        <ele>1237.8</ele>
        <time>2022-04-03T11:55:33Z</time>
      </trkpt>
      <trkpt lat="36.878018" lon="-3.742591">
        <ele>1238.8</ele>
        <time>2022-04-03T11:55:47Z</time>
      </trkpt>
      <trkpt lat="36.877903" lon="-3.742398">
        <ele>1240.7</ele>
        <time>2022-04-03T11:56:07Z</time>
      </trkpt>
      <trkpt lat="36.877768" lon="-3.742234">
        <ele>1241.7</ele>
        <time>2022-04-03T11:56:21Z</time>
      </trkpt>
      <trkpt lat="36.877668" lon="-3.742024">
        <ele>1242.2</ele>
        <time>2022-04-03T11:56:36Z</time>
      </trkpt>
      <trkpt lat="36.877662" lon="-3.741787">
        <ele>1242.2</ele>
        <time>2022-04-03T11:56:51Z</time>
      </trkpt>
      <trkpt lat="36.877659" lon="-3.741544">
        <ele>1241.2</ele>
        <time>2022-04-03T11:57:06Z</time>
      </trkpt>
      <trkpt lat="36.877642" lon="-3.741309">
        <ele>1241.7</ele>
        <time>2022-04-03T11:57:22Z</time>
      </trkpt>
      <trkpt lat="36.877553" lon="-3.741089">
        <ele>1240.2</ele>
        <time>2022-04-03T11:57:36Z</time>
      </trkpt>
      <trkpt lat="36.877517" lon="-3.740857">
        <ele>1243.1</ele>
        <time>2022-04-03T11:57:51Z</time>
      </trkpt>
      <trkpt lat="36.877540" lon="-3.740613">
        <ele>1244.1</ele>
        <time>2022-04-03T11:58:06Z</time>
      </trkpt>
      <trkpt lat="36.877579" lon="-3.740364">
        <ele>1245.5</ele>
        <time>2022-04-03T11:58:21Z</time>
      </trkpt>
      <trkpt lat="36.877610" lon="-3.740136">
        <ele>1247.4</ele>
        <time>2022-04-03T11:58:36Z</time>
      </trkpt>
      <trkpt lat="36.877678" lon="-3.739902">
        <ele>1252.7</ele>
        <time>2022-04-03T11:58:53Z</time>
      </trkpt>
      <trkpt lat="36.877696" lon="-3.739764">
        <ele>1253.2</ele>
        <time>2022-04-03T12:00:39Z</time>
      </trkpt>
      <trkpt lat="36.877817" lon="-3.739549">
        <ele>1255.1</ele>
        <time>2022-04-03T12:01:13Z</time>
      </trkpt>
      <trkpt lat="36.877867" lon="-3.739248">
        <ele>1258.0</ele>
        <time>2022-04-03T12:01:33Z</time>
      </trkpt>
      <trkpt lat="36.877818" lon="-3.738998">
        <ele>1259.0</ele>
        <time>2022-04-03T12:01:57Z</time>
      </trkpt>
      <trkpt lat="36.877756" lon="-3.738743">
        <ele>1258.5</ele>
        <time>2022-04-03T12:02:15Z</time>
      </trkpt>
      <trkpt lat="36.877643" lon="-3.738441">
        <ele>1259.5</ele>
        <time>2022-04-03T12:02:38Z</time>
      </trkpt>
      <trkpt lat="36.877534" lon="-3.738206">
        <ele>1259.0</ele>
        <time>2022-04-03T12:02:54Z</time>
      </trkpt>
      <trkpt lat="36.877487" lon="-3.737892">
        <ele>1259.0</ele>
        <time>2022-04-03T12:03:12Z</time>
      </trkpt>
      <trkpt lat="36.877414" lon="-3.737561">
        <ele>1259.5</ele>
        <time>2022-04-03T12:03:32Z</time>
      </trkpt>
      <trkpt lat="36.877327" lon="-3.737304">
        <ele>1259.5</ele>
        <time>2022-04-03T12:03:48Z</time>
      </trkpt>
      <trkpt lat="36.877226" lon="-3.737057">
        <ele>1260.4</ele>
        <time>2022-04-03T12:04:05Z</time>
      </trkpt>
      <trkpt lat="36.877137" lon="-3.736871">
        <ele>1262.3</ele>
        <time>2022-04-03T12:04:18Z</time>
      </trkpt>
    </trkseg>
  </trk>
</gpx>
